<?xml version="1.0" encoding="UTF-8" standalone="no" ?>
<gpx xmlns="http://www.topografix.com/GPX/1/1" xmlns:xsi="http://www.w3.org/2001/XMLSchema-instance" xsi:schemaLocation="http://www.topografix.com/GPX/1/1 http://www.topografix.com/GPX/1/1/gpx.xsd" version="1.1" creator="VisuGPX - https://www.visugpx.com">
  <metadata>
    <name>Peyrus</name>
    <desc><![CDATA[au pied du vercors]]></desc>
  </metadata>
  <trk>
    <name><![CDATA[Peyrus]]></name>
    <trkseg>
      <trkpt lat="45.11896" lon="4.97492">
        <ele>196</ele>
        <time>2009-04-15T11:20:47Z</time>
      </trkpt>
      <trkpt lat="45.11897" lon="4.97492">
        <ele>196</ele>
        <time>2009-04-15T11:20:47Z</time>
      </trkpt>
      <trkpt lat="45.11897" lon="4.97524">
        <ele>195.78012084961</ele>
        <time>2009-04-15T11:20:50Z</time>
      </trkpt>
      <trkpt lat="45.11907" lon="4.97547">
        <ele>195.50260925293</ele>
        <time>2009-04-15T11:20:53Z</time>
      </trkpt>
      <trkpt lat="45.11924" lon="4.97559">
        <ele>195.67935180664</ele>
        <time>2009-04-15T11:20:56Z</time>
      </trkpt>
      <trkpt lat="45.11939" lon="4.97559">
        <ele>196.46783447266</ele>
        <time>2009-04-15T11:20:58Z</time>
      </trkpt>
      <trkpt lat="45.11962" lon="4.97643">
        <ele>196.62117004394</ele>
        <time>2009-04-15T11:21:07Z</time>
      </trkpt>
      <trkpt lat="45.1203" lon="4.9798">
        <ele>201.32762145996</ele>
        <time>2009-04-15T11:21:43Z</time>
      </trkpt>
      <trkpt lat="45.12055" lon="4.9806">
        <ele>203.28192138672</ele>
        <time>2009-04-15T11:21:52Z</time>
      </trkpt>
      <trkpt lat="45.12062" lon="4.98102">
        <ele>204.30709838867</ele>
        <time>2009-04-15T11:21:57Z</time>
      </trkpt>
      <trkpt lat="45.12069" lon="4.98211">
        <ele>205.54879760742</ele>
        <time>2009-04-15T11:22:08Z</time>
      </trkpt>
      <trkpt lat="45.12068" lon="4.98288">
        <ele>204.46089172363</ele>
        <time>2009-04-15T11:22:16Z</time>
      </trkpt>
      <trkpt lat="45.12045" lon="4.98371">
        <ele>204.44242858887</ele>
        <time>2009-04-15T11:22:25Z</time>
      </trkpt>
      <trkpt lat="45.12031" lon="4.98383">
        <ele>204.56602478027</ele>
        <time>2009-04-15T11:22:27Z</time>
      </trkpt>
      <trkpt lat="45.12024" lon="4.98397">
        <ele>204.81550598144</ele>
        <time>2009-04-15T11:22:29Z</time>
      </trkpt>
      <trkpt lat="45.12026" lon="4.98427">
        <ele>205.30999755859</ele>
        <time>2009-04-15T11:22:32Z</time>
      </trkpt>
      <trkpt lat="45.12019" lon="4.98482">
        <ele>205.22760009766</ele>
        <time>2009-04-15T11:22:38Z</time>
      </trkpt>
      <trkpt lat="45.12017" lon="4.98555">
        <ele>204.40971374512</ele>
        <time>2009-04-15T11:22:45Z</time>
      </trkpt>
      <trkpt lat="45.12028" lon="4.98671">
        <ele>203.64041137695</ele>
        <time>2009-04-15T11:22:57Z</time>
      </trkpt>
      <trkpt lat="45.12036" lon="4.98715">
        <ele>203.53854370117</ele>
        <time>2009-04-15T11:23:02Z</time>
      </trkpt>
      <trkpt lat="45.12048" lon="4.98766">
        <ele>203.69752502441</ele>
        <time>2009-04-15T11:23:08Z</time>
      </trkpt>
      <trkpt lat="45.12065" lon="4.98815">
        <ele>203.9052734375</ele>
        <time>2009-04-15T11:23:13Z</time>
      </trkpt>
      <trkpt lat="45.12103" lon="4.98886">
        <ele>204.13391113281</ele>
        <time>2009-04-15T11:23:22Z</time>
      </trkpt>
      <trkpt lat="45.12161" lon="4.98968">
        <ele>206.76472473144</ele>
        <time>2009-04-15T11:23:34Z</time>
      </trkpt>
      <trkpt lat="45.12215" lon="4.99027">
        <ele>213.65786743164</ele>
        <time>2009-04-15T11:23:44Z</time>
      </trkpt>
      <trkpt lat="45.12214" lon="4.99046">
        <ele>212.87773132324</ele>
        <time>2009-04-15T11:23:46Z</time>
      </trkpt>
      <trkpt lat="45.12221" lon="4.99061">
        <ele>213.33065795898</ele>
        <time>2009-04-15T11:23:48Z</time>
      </trkpt>
      <trkpt lat="45.12227" lon="4.99065">
        <ele>213.92024230957</ele>
        <time>2009-04-15T11:23:49Z</time>
      </trkpt>
      <trkpt lat="45.12196" lon="4.99199">
        <ele>209.83680725098</ele>
        <time>2009-04-15T11:24:03Z</time>
      </trkpt>
      <trkpt lat="45.12139" lon="4.99395">
        <ele>208.74853515625</ele>
        <time>2009-04-15T11:24:25Z</time>
      </trkpt>
      <trkpt lat="45.12105" lon="4.99475">
        <ele>207.41941833496</ele>
        <time>2009-04-15T11:24:35Z</time>
      </trkpt>
      <trkpt lat="45.12075" lon="4.99532">
        <ele>206.97688293457</ele>
        <time>2009-04-15T11:24:42Z</time>
      </trkpt>
      <trkpt lat="45.11972" lon="4.99708">
        <ele>207.65893554688</ele>
        <time>2009-04-15T11:25:06Z</time>
      </trkpt>
      <trkpt lat="45.11905" lon="4.99811">
        <ele>213.69618225098</ele>
        <time>2009-04-15T11:25:20Z</time>
      </trkpt>
      <trkpt lat="45.11873" lon="4.99834">
        <ele>219.34411621094</ele>
        <time>2009-04-15T11:25:25Z</time>
      </trkpt>
      <trkpt lat="45.11674" lon="4.9992">
        <ele>235.75573730469</ele>
        <time>2009-04-15T11:25:56Z</time>
      </trkpt>
      <trkpt lat="45.11651" lon="4.99942">
        <ele>236.03540039062</ele>
        <time>2009-04-15T11:26:00Z</time>
      </trkpt>
      <trkpt lat="45.11601" lon="5.0003">
        <ele>242.57743835449</ele>
        <time>2009-04-15T11:26:11Z</time>
      </trkpt>
      <trkpt lat="45.11587" lon="5.00047">
        <ele>242.3405456543</ele>
        <time>2009-04-15T11:26:14Z</time>
      </trkpt>
      <trkpt lat="45.11285" lon="5.00317">
        <ele>237.41204833984</ele>
        <time>2009-04-15T11:27:06Z</time>
      </trkpt>
      <trkpt lat="45.1127" lon="5.00319">
        <ele>237.48414611816</ele>
        <time>2009-04-15T11:27:08Z</time>
      </trkpt>
      <trkpt lat="45.11185" lon="5.00361">
        <ele>238</ele>
        <time>2009-04-15T11:27:21Z</time>
      </trkpt>
      <trkpt lat="45.11085" lon="5.00418">
        <ele>245.96640014648</ele>
        <time>2009-04-15T11:27:37Z</time>
      </trkpt>
      <trkpt lat="45.11021" lon="5.00459">
        <ele>253.77572631836</ele>
        <time>2009-04-15T11:27:47Z</time>
      </trkpt>
      <trkpt lat="45.10919" lon="5.00538">
        <ele>267.7610168457</ele>
        <time>2009-04-15T11:28:04Z</time>
      </trkpt>
      <trkpt lat="45.10901" lon="5.00547">
        <ele>269.13671875</ele>
        <time>2009-04-15T11:28:07Z</time>
      </trkpt>
      <trkpt lat="45.1073" lon="5.00582">
        <ele>260.85095214844</ele>
        <time>2009-04-15T11:28:32Z</time>
      </trkpt>
      <trkpt lat="45.10627" lon="5.00619">
        <ele>248.52589416504</ele>
        <time>2009-04-15T11:28:47Z</time>
      </trkpt>
      <trkpt lat="45.10597" lon="5.00638">
        <ele>242.1259765625</ele>
        <time>2009-04-15T11:28:52Z</time>
      </trkpt>
      <trkpt lat="45.10499" lon="5.00554">
        <ele>240.13258361816</ele>
        <time>2009-04-15T11:29:09Z</time>
      </trkpt>
      <trkpt lat="45.10466" lon="5.00533">
        <ele>238.54565429688</ele>
        <time>2009-04-15T11:29:14Z</time>
      </trkpt>
      <trkpt lat="45.10401" lon="5.00502">
        <ele>239.18350219727</ele>
        <time>2009-04-15T11:29:24Z</time>
      </trkpt>
      <trkpt lat="45.10357" lon="5.00487">
        <ele>238.55291748047</ele>
        <time>2009-04-15T11:29:31Z</time>
      </trkpt>
      <trkpt lat="45.10328" lon="5.00491">
        <ele>234.08888244629</ele>
        <time>2009-04-15T11:29:35Z</time>
      </trkpt>
      <trkpt lat="45.10227" lon="5.00523">
        <ele>220.05702209473</ele>
        <time>2009-04-15T11:29:50Z</time>
      </trkpt>
      <trkpt lat="45.10183" lon="5.00525">
        <ele>220</ele>
        <time>2009-04-15T11:29:56Z</time>
      </trkpt>
      <trkpt lat="45.1017" lon="5.00514">
        <ele>220</ele>
        <time>2009-04-15T11:29:59Z</time>
      </trkpt>
      <trkpt lat="45.1016" lon="5.00497">
        <ele>220</ele>
        <time>2009-04-15T11:30:01Z</time>
      </trkpt>
      <trkpt lat="45.10148" lon="5.00464">
        <ele>220</ele>
        <time>2009-04-15T11:30:05Z</time>
      </trkpt>
      <trkpt lat="45.1013" lon="5.00432">
        <ele>220</ele>
        <time>2009-04-15T11:30:09Z</time>
      </trkpt>
      <trkpt lat="45.10096" lon="5.00391">
        <ele>219.95846557617</ele>
        <time>2009-04-15T11:30:15Z</time>
      </trkpt>
      <trkpt lat="45.09996" lon="5.00336">
        <ele>219.7755279541</ele>
        <time>2009-04-15T11:30:31Z</time>
      </trkpt>
      <trkpt lat="45.09943" lon="5.00297">
        <ele>218.89660644531</ele>
        <time>2009-04-15T11:30:40Z</time>
      </trkpt>
      <trkpt lat="45.09916" lon="5.00264">
        <ele>217.45681762695</ele>
        <time>2009-04-15T11:30:45Z</time>
      </trkpt>
      <trkpt lat="45.09901" lon="5.00235">
        <ele>216.87536621094</ele>
        <time>2009-04-15T11:30:49Z</time>
      </trkpt>
      <trkpt lat="45.09858" lon="5.00108">
        <ele>217.88586425781</ele>
        <time>2009-04-15T11:31:03Z</time>
      </trkpt>
      <trkpt lat="45.09835" lon="5.00053">
        <ele>218.06188964844</ele>
        <time>2009-04-15T11:31:10Z</time>
      </trkpt>
      <trkpt lat="45.09797" lon="4.99986">
        <ele>214.31120300293</ele>
        <time>2009-04-15T11:31:18Z</time>
      </trkpt>
      <trkpt lat="45.09771" lon="4.99959">
        <ele>213.76734924316</ele>
        <time>2009-04-15T11:31:23Z</time>
      </trkpt>
      <trkpt lat="45.09668" lon="4.99894">
        <ele>212.00849914551</ele>
        <time>2009-04-15T11:31:40Z</time>
      </trkpt>
      <trkpt lat="45.0954" lon="4.99734">
        <ele>211.30828857422</ele>
        <time>2009-04-15T11:32:04Z</time>
      </trkpt>
      <trkpt lat="45.09463" lon="4.99609">
        <ele>217.19209289551</ele>
        <time>2009-04-15T11:32:21Z</time>
      </trkpt>
      <trkpt lat="45.094" lon="4.99522">
        <ele>215.13066101074</ele>
        <time>2009-04-15T11:32:34Z</time>
      </trkpt>
      <trkpt lat="45.0919" lon="4.99284">
        <ele>212.42778015137</ele>
        <time>2009-04-15T11:33:13Z</time>
      </trkpt>
      <trkpt lat="45.09122" lon="4.99215">
        <ele>209.92979431152</ele>
        <time>2009-04-15T11:33:26Z</time>
      </trkpt>
      <trkpt lat="45.09073" lon="4.99184">
        <ele>211.73156738281</ele>
        <time>2009-04-15T11:33:33Z</time>
      </trkpt>
      <trkpt lat="45.08987" lon="4.99149">
        <ele>211.29141235352</ele>
        <time>2009-04-15T11:33:46Z</time>
      </trkpt>
      <trkpt lat="45.08746" lon="4.99023">
        <ele>208.87873840332</ele>
        <time>2009-04-15T11:34:24Z</time>
      </trkpt>
      <trkpt lat="45.08579" lon="4.98846">
        <ele>203.08320617676</ele>
        <time>2009-04-15T11:34:54Z</time>
      </trkpt>
      <trkpt lat="45.08554" lon="4.98829">
        <ele>201.71516418457</ele>
        <time>2009-04-15T11:34:58Z</time>
      </trkpt>
      <trkpt lat="45.08434" lon="4.98818">
        <ele>191.19401550293</ele>
        <time>2009-04-15T11:35:16Z</time>
      </trkpt>
      <trkpt lat="45.08377" lon="4.98761">
        <ele>192.55700683594</ele>
        <time>2009-04-15T11:35:26Z</time>
      </trkpt>
      <trkpt lat="45.08264" lon="4.98685">
        <ele>192.86231994629</ele>
        <time>2009-04-15T11:35:44Z</time>
      </trkpt>
      <trkpt lat="45.0804" lon="4.98643">
        <ele>183.39486694336</ele>
        <time>2009-04-15T11:36:17Z</time>
      </trkpt>
      <trkpt lat="45.07999" lon="4.98628">
        <ele>182.5244140625</ele>
        <time>2009-04-15T11:36:23Z</time>
      </trkpt>
      <trkpt lat="45.07901" lon="4.98577">
        <ele>181.11947631836</ele>
        <time>2009-04-15T11:36:38Z</time>
      </trkpt>
      <trkpt lat="45.07761" lon="4.98567">
        <ele>178.43406677246</ele>
        <time>2009-04-15T11:36:59Z</time>
      </trkpt>
      <trkpt lat="45.0773" lon="4.98575">
        <ele>177.86099243164</ele>
        <time>2009-04-15T11:37:03Z</time>
      </trkpt>
      <trkpt lat="45.07673" lon="4.98605">
        <ele>177.87445068359</ele>
        <time>2009-04-15T11:37:12Z</time>
      </trkpt>
      <trkpt lat="45.07625" lon="4.98624">
        <ele>177.9736328125</ele>
        <time>2009-04-15T11:37:19Z</time>
      </trkpt>
      <trkpt lat="45.07504" lon="4.98628">
        <ele>175.62933349609</ele>
        <time>2009-04-15T11:37:37Z</time>
      </trkpt>
      <trkpt lat="45.07364" lon="4.98655">
        <ele>173.71936035156</ele>
        <time>2009-04-15T11:37:58Z</time>
      </trkpt>
      <trkpt lat="45.07196" lon="4.98659">
        <ele>172.8807220459</ele>
        <time>2009-04-15T11:38:22Z</time>
      </trkpt>
      <trkpt lat="45.07152" lon="4.98639">
        <ele>172.1623840332</ele>
        <time>2009-04-15T11:38:29Z</time>
      </trkpt>
      <trkpt lat="45.07086" lon="4.98548">
        <ele>171.27778625488</ele>
        <time>2009-04-15T11:38:42Z</time>
      </trkpt>
      <trkpt lat="45.0706" lon="4.98523">
        <ele>172.65773010254</ele>
        <time>2009-04-15T11:38:47Z</time>
      </trkpt>
      <trkpt lat="45.07006" lon="4.98496">
        <ele>175.29237365723</ele>
        <time>2009-04-15T11:38:55Z</time>
      </trkpt>
      <trkpt lat="45.06566" lon="4.98495">
        <ele>166.16719055176</ele>
        <time>2009-04-15T11:39:59Z</time>
      </trkpt>
      <trkpt lat="45.06411" lon="4.98496">
        <ele>163.05117797852</ele>
        <time>2009-04-15T11:40:22Z</time>
      </trkpt>
      <trkpt lat="45.064" lon="4.98529">
        <ele>163.76608276367</ele>
        <time>2009-04-15T11:40:25Z</time>
      </trkpt>
      <trkpt lat="45.06386" lon="4.98556">
        <ele>164.58963012695</ele>
        <time>2009-04-15T11:40:29Z</time>
      </trkpt>
      <trkpt lat="45.06351" lon="4.98612">
        <ele>167.43492126465</ele>
        <time>2009-04-15T11:40:37Z</time>
      </trkpt>
      <trkpt lat="45.06334" lon="4.9863">
        <ele>168.78890991211</ele>
        <time>2009-04-15T11:40:40Z</time>
      </trkpt>
      <trkpt lat="45.06245" lon="4.98655">
        <ele>171.92478942871</ele>
        <time>2009-04-15T11:40:53Z</time>
      </trkpt>
      <trkpt lat="45.06189" lon="4.98696">
        <ele>174.56359863281</ele>
        <time>2009-04-15T11:41:02Z</time>
      </trkpt>
      <trkpt lat="45.06146" lon="4.98739">
        <ele>173.31185913086</ele>
        <time>2009-04-15T11:41:10Z</time>
      </trkpt>
      <trkpt lat="45.06124" lon="4.9877">
        <ele>170.66746520996</ele>
        <time>2009-04-15T11:41:14Z</time>
      </trkpt>
      <trkpt lat="45.061" lon="4.98819">
        <ele>167.8669128418</ele>
        <time>2009-04-15T11:41:20Z</time>
      </trkpt>
      <trkpt lat="45.06093" lon="4.98825">
        <ele>166.62600708008</ele>
        <time>2009-04-15T11:41:22Z</time>
      </trkpt>
      <trkpt lat="45.06088" lon="4.98636">
        <ele>162.41032409668</ele>
        <time>2009-04-15T11:41:41Z</time>
      </trkpt>
      <trkpt lat="45.06091" lon="4.98484">
        <ele>161.09112548828</ele>
        <time>2009-04-15T11:41:57Z</time>
      </trkpt>
      <trkpt lat="45.06007" lon="4.97999">
        <ele>159.15609741211</ele>
        <time>2009-04-15T11:42:48Z</time>
      </trkpt>
      <trkpt lat="45.06002" lon="4.97833">
        <ele>157.10188293457</ele>
        <time>2009-04-15T11:43:05Z</time>
      </trkpt>
      <trkpt lat="45.06007" lon="4.97614">
        <ele>159.9372253418</ele>
        <time>2009-04-15T11:43:28Z</time>
      </trkpt>
      <trkpt lat="45.05999" lon="4.97551">
        <ele>159.56109619141</ele>
        <time>2009-04-15T11:43:34Z</time>
      </trkpt>
      <trkpt lat="45.05956" lon="4.97369">
        <ele>162.49713134766</ele>
        <time>2009-04-15T11:43:54Z</time>
      </trkpt>
      <trkpt lat="45.05946" lon="4.97325">
        <ele>163.23443603516</ele>
        <time>2009-04-15T11:43:59Z</time>
      </trkpt>
      <trkpt lat="45.05932" lon="4.97285">
        <ele>164.18051147461</ele>
        <time>2009-04-15T11:44:03Z</time>
      </trkpt>
      <trkpt lat="45.05891" lon="4.97207">
        <ele>164.55513000488</ele>
        <time>2009-04-15T11:44:13Z</time>
      </trkpt>
      <trkpt lat="45.05851" lon="4.97111">
        <ele>164.75187683106</ele>
        <time>2009-04-15T11:44:25Z</time>
      </trkpt>
      <trkpt lat="45.05814" lon="4.9704">
        <ele>162.91606140137</ele>
        <time>2009-04-15T11:44:34Z</time>
      </trkpt>
      <trkpt lat="45.05784" lon="4.96961">
        <ele>160.55744934082</ele>
        <time>2009-04-15T11:44:43Z</time>
      </trkpt>
      <trkpt lat="45.05739" lon="4.96782">
        <ele>157.41236877441</ele>
        <time>2009-04-15T11:45:03Z</time>
      </trkpt>
      <trkpt lat="45.0572" lon="4.96688">
        <ele>155.61161804199</ele>
        <time>2009-04-15T11:45:13Z</time>
      </trkpt>
      <trkpt lat="45.05703" lon="4.9651">
        <ele>154.92352294922</ele>
        <time>2009-04-15T11:45:31Z</time>
      </trkpt>
      <trkpt lat="45.05682" lon="4.9644">
        <ele>153.64758300781</ele>
        <time>2009-04-15T11:45:39Z</time>
      </trkpt>
      <trkpt lat="45.05636" lon="4.96247">
        <ele>150.01329040527</ele>
        <time>2009-04-15T11:46:00Z</time>
      </trkpt>
      <trkpt lat="45.05608" lon="4.96106">
        <ele>150.19157409668</ele>
        <time>2009-04-15T11:46:15Z</time>
      </trkpt>
      <trkpt lat="45.05461" lon="4.95266">
        <ele>148.69422912598</ele>
        <time>2009-04-15T11:47:44Z</time>
      </trkpt>
      <trkpt lat="45.05473" lon="4.95268">
        <ele>148.33604431152</ele>
        <time>2009-04-15T11:47:46Z</time>
      </trkpt>
      <trkpt lat="45.05461" lon="4.95266">
        <ele>148.69422912598</ele>
        <time>2009-04-15T11:47:47Z</time>
      </trkpt>
      <trkpt lat="45.05441" lon="4.95191">
        <ele>147.41537475586</ele>
        <time>2009-04-15T11:47:56Z</time>
      </trkpt>
      <trkpt lat="45.05424" lon="4.95152">
        <ele>146.60572814941</ele>
        <time>2009-04-15T11:48:00Z</time>
      </trkpt>
      <trkpt lat="45.0538" lon="4.95103">
        <ele>144.35488891602</ele>
        <time>2009-04-15T11:48:09Z</time>
      </trkpt>
      <trkpt lat="45.05378" lon="4.95031">
        <ele>143.98731994629</ele>
        <time>2009-04-15T11:48:16Z</time>
      </trkpt>
      <trkpt lat="45.05355" lon="4.94952">
        <ele>145.61976623535</ele>
        <time>2009-04-15T11:48:25Z</time>
      </trkpt>
      <trkpt lat="45.05276" lon="4.94865">
        <ele>145.35388183594</ele>
        <time>2009-04-15T11:48:39Z</time>
      </trkpt>
      <trkpt lat="45.05258" lon="4.94774">
        <ele>149.74250793457</ele>
        <time>2009-04-15T11:48:49Z</time>
      </trkpt>
      <trkpt lat="45.05252" lon="4.94768">
        <ele>149.96105957031</ele>
        <time>2009-04-15T11:48:50Z</time>
      </trkpt>
      <trkpt lat="45.05246" lon="4.94769">
        <ele>149.7412109375</ele>
        <time>2009-04-15T11:48:51Z</time>
      </trkpt>
      <trkpt lat="45.05227" lon="4.94774">
        <ele>148.84535217285</ele>
        <time>2009-04-15T11:48:54Z</time>
      </trkpt>
      <trkpt lat="45.05211" lon="4.94771">
        <ele>148.56414794922</ele>
        <time>2009-04-15T11:48:56Z</time>
      </trkpt>
      <trkpt lat="45.05189" lon="4.94749">
        <ele>149.58299255371</ele>
        <time>2009-04-15T11:49:00Z</time>
      </trkpt>
      <trkpt lat="45.05162" lon="4.94733">
        <ele>149.76058959961</ele>
        <time>2009-04-15T11:49:04Z</time>
      </trkpt>
      <trkpt lat="45.05055" lon="4.94717">
        <ele>148.42442321777</ele>
        <time>2009-04-15T11:49:20Z</time>
      </trkpt>
      <trkpt lat="45.0485" lon="4.94568">
        <ele>146.03677368164</ele>
        <time>2009-04-15T11:49:53Z</time>
      </trkpt>
      <trkpt lat="45.04696" lon="4.94469">
        <ele>145.35070800781</ele>
        <time>2009-04-15T11:50:18Z</time>
      </trkpt>
      <trkpt lat="45.04466" lon="4.94367">
        <ele>144</ele>
        <time>2009-04-15T11:50:53Z</time>
      </trkpt>
      <trkpt lat="45.0443" lon="4.94341">
        <ele>144</ele>
        <time>2009-04-15T11:50:59Z</time>
      </trkpt>
      <trkpt lat="45.04374" lon="4.9429">
        <ele>144.27351379394</ele>
        <time>2009-04-15T11:51:09Z</time>
      </trkpt>
      <trkpt lat="45.04189" lon="4.94095">
        <ele>145.36340332031</ele>
        <time>2009-04-15T11:51:42Z</time>
      </trkpt>
      <trkpt lat="45.03983" lon="4.93896">
        <ele>139.55737304688</ele>
        <time>2009-04-15T11:52:19Z</time>
      </trkpt>
      <trkpt lat="45.0389" lon="4.93774">
        <ele>137.7565612793</ele>
        <time>2009-04-15T11:52:37Z</time>
      </trkpt>
      <trkpt lat="45.0375" lon="4.93658">
        <ele>137.40798950195</ele>
        <time>2009-04-15T11:53:01Z</time>
      </trkpt>
      <trkpt lat="45.03658" lon="4.93568">
        <ele>138.13214111328</ele>
        <time>2009-04-15T11:53:17Z</time>
      </trkpt>
      <trkpt lat="45.03537" lon="4.93449">
        <ele>136.95088195801</ele>
        <time>2009-04-15T11:53:38Z</time>
      </trkpt>
      <trkpt lat="45.03436" lon="4.93307">
        <ele>135.74491882324</ele>
        <time>2009-04-15T11:53:59Z</time>
      </trkpt>
      <trkpt lat="45.03358" lon="4.93219">
        <ele>134.57868957519</ele>
        <time>2009-04-15T11:54:14Z</time>
      </trkpt>
      <trkpt lat="45.03287" lon="4.9316">
        <ele>136.58485412598</ele>
        <time>2009-04-15T11:54:26Z</time>
      </trkpt>
      <trkpt lat="45.03282" lon="4.93151">
        <ele>136.76493835449</ele>
        <time>2009-04-15T11:54:27Z</time>
      </trkpt>
      <trkpt lat="45.03202" lon="4.93101">
        <ele>137.09056091309</ele>
        <time>2009-04-15T11:54:40Z</time>
      </trkpt>
      <trkpt lat="45.03184" lon="4.93081">
        <ele>138.23168945312</ele>
        <time>2009-04-15T11:54:43Z</time>
      </trkpt>
      <trkpt lat="45.03182" lon="4.93059">
        <ele>138.4207611084</ele>
        <time>2009-04-15T11:54:45Z</time>
      </trkpt>
      <trkpt lat="45.03169" lon="4.93053">
        <ele>138.3807220459</ele>
        <time>2009-04-15T11:54:47Z</time>
      </trkpt>
      <trkpt lat="45.03159" lon="4.93063">
        <ele>138.08114624023</ele>
        <time>2009-04-15T11:54:49Z</time>
      </trkpt>
      <trkpt lat="45.03152" lon="4.93081">
        <ele>137.68295288086</ele>
        <time>2009-04-15T11:54:51Z</time>
      </trkpt>
      <trkpt lat="45.03062" lon="4.93076">
        <ele>135.98840332031</ele>
        <time>2009-04-15T11:55:04Z</time>
      </trkpt>
      <trkpt lat="45.02979" lon="4.93086">
        <ele>135.75694274902</ele>
        <time>2009-04-15T11:55:16Z</time>
      </trkpt>
      <trkpt lat="45.02935" lon="4.93102">
        <ele>136.80276489258</ele>
        <time>2009-04-15T11:55:23Z</time>
      </trkpt>
      <trkpt lat="45.0279" lon="4.93198">
        <ele>137.11016845703</ele>
        <time>2009-04-15T11:55:46Z</time>
      </trkpt>
      <trkpt lat="45.02593" lon="4.93342">
        <ele>136.58407592773</ele>
        <time>2009-04-15T11:56:19Z</time>
      </trkpt>
      <trkpt lat="45.02555" lon="4.9336">
        <ele>137.23596191406</ele>
        <time>2009-04-15T11:56:24Z</time>
      </trkpt>
      <trkpt lat="45.02522" lon="4.93366">
        <ele>137.92326354981</ele>
        <time>2009-04-15T11:56:29Z</time>
      </trkpt>
      <trkpt lat="45.02429" lon="4.9337">
        <ele>136.7317199707</ele>
        <time>2009-04-15T11:56:43Z</time>
      </trkpt>
      <trkpt lat="45.02258" lon="4.93355">
        <ele>137.23516845703</ele>
        <time>2009-04-15T11:57:08Z</time>
      </trkpt>
      <trkpt lat="45.02229" lon="4.93357">
        <ele>137.53675842285</ele>
        <time>2009-04-15T11:57:12Z</time>
      </trkpt>
      <trkpt lat="45.02201" lon="4.93367">
        <ele>137.99108886719</ele>
        <time>2009-04-15T11:57:16Z</time>
      </trkpt>
      <trkpt lat="45.02145" lon="4.93406">
        <ele>138.35221862793</ele>
        <time>2009-04-15T11:57:25Z</time>
      </trkpt>
      <trkpt lat="45.02089" lon="4.93459">
        <ele>137.10018920898</ele>
        <time>2009-04-15T11:57:35Z</time>
      </trkpt>
      <trkpt lat="45.02047" lon="4.93491">
        <ele>136.51637268066</ele>
        <time>2009-04-15T11:57:42Z</time>
      </trkpt>
      <trkpt lat="45.02036" lon="4.93493">
        <ele>136.38293457031</ele>
        <time>2009-04-15T11:57:44Z</time>
      </trkpt>
      <trkpt lat="45.01964" lon="4.93551">
        <ele>134.87741088867</ele>
        <time>2009-04-15T11:57:56Z</time>
      </trkpt>
      <trkpt lat="45.01936" lon="4.9358">
        <ele>133.72518920898</ele>
        <time>2009-04-15T11:58:01Z</time>
      </trkpt>
      <trkpt lat="45.01929" lon="4.93593">
        <ele>133.11738586426</ele>
        <time>2009-04-15T11:58:02Z</time>
      </trkpt>
      <trkpt lat="45.01832" lon="4.9369">
        <ele>127.82810974121</ele>
        <time>2009-04-15T11:58:20Z</time>
      </trkpt>
      <trkpt lat="45.01652" lon="4.93844">
        <ele>124.93809509277</ele>
        <time>2009-04-15T11:58:50Z</time>
      </trkpt>
      <trkpt lat="45.01553" lon="4.9393">
        <ele>133.84939575195</ele>
        <time>2009-04-15T11:59:07Z</time>
      </trkpt>
      <trkpt lat="45.01546" lon="4.93932">
        <ele>134.18240356445</ele>
        <time>2009-04-15T11:59:08Z</time>
      </trkpt>
      <trkpt lat="45.01534" lon="4.93905">
        <ele>132.93321228027</ele>
        <time>2009-04-15T11:59:12Z</time>
      </trkpt>
      <trkpt lat="45.01504" lon="4.93822">
        <ele>132.91723632812</ele>
        <time>2009-04-15T11:59:21Z</time>
      </trkpt>
      <trkpt lat="45.01482" lon="4.9374">
        <ele>142.3346862793</ele>
        <time>2009-04-15T11:59:30Z</time>
      </trkpt>
      <trkpt lat="45.01487" lon="4.9373">
        <ele>139.84394836426</ele>
        <time>2009-04-15T11:59:31Z</time>
      </trkpt>
      <trkpt lat="45.01483" lon="4.93722">
        <ele>141.6194152832</ele>
        <time>2009-04-15T11:59:32Z</time>
      </trkpt>
      <trkpt lat="45.01478" lon="4.93722">
        <ele>144.24795532227</ele>
        <time>2009-04-15T11:59:33Z</time>
      </trkpt>
      <trkpt lat="45.01465" lon="4.93742">
        <ele>150.50419616699</ele>
        <time>2009-04-15T11:59:36Z</time>
      </trkpt>
      <trkpt lat="45.01449" lon="4.93801">
        <ele>151.32287597656</ele>
        <time>2009-04-15T11:59:42Z</time>
      </trkpt>
      <trkpt lat="45.01401" lon="4.93932">
        <ele>146.55111694336</ele>
        <time>2009-04-15T11:59:58Z</time>
      </trkpt>
      <trkpt lat="45.01401" lon="4.94011">
        <ele>148.63693237305</ele>
        <time>2009-04-15T12:00:06Z</time>
      </trkpt>
      <trkpt lat="45.01415" lon="4.94043">
        <ele>148.49375915527</ele>
        <time>2009-04-15T12:00:10Z</time>
      </trkpt>
      <trkpt lat="45.01484" lon="4.9416">
        <ele>158.53515625</ele>
        <time>2009-04-15T12:00:25Z</time>
      </trkpt>
      <trkpt lat="45.01527" lon="4.94271">
        <ele>164.34916687012</ele>
        <time>2009-04-15T12:00:38Z</time>
      </trkpt>
      <trkpt lat="45.01558" lon="4.94396">
        <ele>168.25486755371</ele>
        <time>2009-04-15T12:00:52Z</time>
      </trkpt>
      <trkpt lat="45.01553" lon="4.94409">
        <ele>168.47839355469</ele>
        <time>2009-04-15T12:00:53Z</time>
      </trkpt>
      <trkpt lat="45.01561" lon="4.9442">
        <ele>169.64115905762</ele>
        <time>2009-04-15T12:00:55Z</time>
      </trkpt>
      <trkpt lat="45.01548" lon="4.94482">
        <ele>173.49211120606</ele>
        <time>2009-04-15T12:01:02Z</time>
      </trkpt>
      <trkpt lat="45.01519" lon="4.94592">
        <ele>177.06048583984</ele>
        <time>2009-04-15T12:01:14Z</time>
      </trkpt>
      <trkpt lat="45.01468" lon="4.94738">
        <ele>176.24133300781</ele>
        <time>2009-04-15T12:01:31Z</time>
      </trkpt>
      <trkpt lat="45.01422" lon="4.94864">
        <ele>180.51951599121</ele>
        <time>2009-04-15T12:01:45Z</time>
      </trkpt>
      <trkpt lat="45.01415" lon="4.94871">
        <ele>180.86480712891</ele>
        <time>2009-04-15T12:01:46Z</time>
      </trkpt>
      <trkpt lat="45.01397" lon="4.94912">
        <ele>183.05264282227</ele>
        <time>2009-04-15T12:01:51Z</time>
      </trkpt>
      <trkpt lat="45.01358" lon="4.94954">
        <ele>185.81161499023</ele>
        <time>2009-04-15T12:01:59Z</time>
      </trkpt>
      <trkpt lat="45.0132" lon="4.94969">
        <ele>187.78469848633</ele>
        <time>2009-04-15T12:02:04Z</time>
      </trkpt>
      <trkpt lat="45.01315" lon="4.94976">
        <ele>188.44329833984</ele>
        <time>2009-04-15T12:02:05Z</time>
      </trkpt>
      <trkpt lat="45.01211" lon="4.95034">
        <ele>196.91523742676</ele>
        <time>2009-04-15T12:02:22Z</time>
      </trkpt>
      <trkpt lat="45.01183" lon="4.95049">
        <ele>198.04840087891</ele>
        <time>2009-04-15T12:02:26Z</time>
      </trkpt>
      <trkpt lat="45.01171" lon="4.95048">
        <ele>197.70002746582</ele>
        <time>2009-04-15T12:02:28Z</time>
      </trkpt>
      <trkpt lat="45.01144" lon="4.95066">
        <ele>200.26606750488</ele>
        <time>2009-04-15T12:02:32Z</time>
      </trkpt>
      <trkpt lat="45.01134" lon="4.95079">
        <ele>201.79606628418</ele>
        <time>2009-04-15T12:02:34Z</time>
      </trkpt>
      <trkpt lat="45.01107" lon="4.95142">
        <ele>207.06625366211</ele>
        <time>2009-04-15T12:02:42Z</time>
      </trkpt>
      <trkpt lat="45.01108" lon="4.95157">
        <ele>208.05305480957</ele>
        <time>2009-04-15T12:02:43Z</time>
      </trkpt>
      <trkpt lat="45.01087" lon="4.95221">
        <ele>209.66600036621</ele>
        <time>2009-04-15T12:02:50Z</time>
      </trkpt>
      <trkpt lat="45.01081" lon="4.95256">
        <ele>210.04302978516</ele>
        <time>2009-04-15T12:02:54Z</time>
      </trkpt>
      <trkpt lat="45.01079" lon="4.95303">
        <ele>209.04507446289</ele>
        <time>2009-04-15T12:02:59Z</time>
      </trkpt>
      <trkpt lat="45.01082" lon="4.95391">
        <ele>203.19001770019</ele>
        <time>2009-04-15T12:03:08Z</time>
      </trkpt>
      <trkpt lat="45.0106" lon="4.95498">
        <ele>191.94509887695</ele>
        <time>2009-04-15T12:03:19Z</time>
      </trkpt>
      <trkpt lat="45.01016" lon="4.95669">
        <ele>180.68132019043</ele>
        <time>2009-04-15T12:03:38Z</time>
      </trkpt>
      <trkpt lat="45.00993" lon="4.95778">
        <ele>175.44039916992</ele>
        <time>2009-04-15T12:03:50Z</time>
      </trkpt>
      <trkpt lat="45.00994" lon="4.95836">
        <ele>173.93325805664</ele>
        <time>2009-04-15T12:03:56Z</time>
      </trkpt>
      <trkpt lat="45.01007" lon="4.95954">
        <ele>171.22727966309</ele>
        <time>2009-04-15T12:04:08Z</time>
      </trkpt>
      <trkpt lat="45.01008" lon="4.96003">
        <ele>170.15213012695</ele>
        <time>2009-04-15T12:04:13Z</time>
      </trkpt>
      <trkpt lat="45.01008" lon="4.96274">
        <ele>169.28793334961</ele>
        <time>2009-04-15T12:04:41Z</time>
      </trkpt>
      <trkpt lat="45.01002" lon="4.96307">
        <ele>169.68389892578</ele>
        <time>2009-04-15T12:04:45Z</time>
      </trkpt>
      <trkpt lat="45.00985" lon="4.96369">
        <ele>170.15943908691</ele>
        <time>2009-04-15T12:04:51Z</time>
      </trkpt>
      <trkpt lat="45.00916" lon="4.96513">
        <ele>168.29203796387</ele>
        <time>2009-04-15T12:05:09Z</time>
      </trkpt>
      <trkpt lat="45.00873" lon="4.96592">
        <ele>168.63803100586</ele>
        <time>2009-04-15T12:05:20Z</time>
      </trkpt>
      <trkpt lat="45.00827" lon="4.96659">
        <ele>167.83920288086</ele>
        <time>2009-04-15T12:05:29Z</time>
      </trkpt>
      <trkpt lat="45.00761" lon="4.96738">
        <ele>168.95782470703</ele>
        <time>2009-04-15T12:05:42Z</time>
      </trkpt>
      <trkpt lat="45.00586" lon="4.97124">
        <ele>172.55055236816</ele>
        <time>2009-04-15T12:06:29Z</time>
      </trkpt>
      <trkpt lat="45.00486" lon="4.9754">
        <ele>175.26223754883</ele>
        <time>2009-04-15T12:07:14Z</time>
      </trkpt>
      <trkpt lat="45.00439" lon="4.97862">
        <ele>172.82363891602</ele>
        <time>2009-04-15T12:07:48Z</time>
      </trkpt>
      <trkpt lat="45.00404" lon="4.98001">
        <ele>168.83934020996</ele>
        <time>2009-04-15T12:08:03Z</time>
      </trkpt>
      <trkpt lat="45.00318" lon="4.98295">
        <ele>171.27749633789</ele>
        <time>2009-04-15T12:08:36Z</time>
      </trkpt>
      <trkpt lat="45.0031" lon="4.98337">
        <ele>170.67782592773</ele>
        <time>2009-04-15T12:08:40Z</time>
      </trkpt>
      <trkpt lat="45.0029" lon="4.98611">
        <ele>170.86720275879</ele>
        <time>2009-04-15T12:09:09Z</time>
      </trkpt>
      <trkpt lat="45.00281" lon="4.98619">
        <ele>171.16213989258</ele>
        <time>2009-04-15T12:09:10Z</time>
      </trkpt>
      <trkpt lat="45.00288" lon="4.98632">
        <ele>171.17916870117</ele>
        <time>2009-04-15T12:09:12Z</time>
      </trkpt>
      <trkpt lat="45.0025" lon="4.99051">
        <ele>172.22259521484</ele>
        <time>2009-04-15T12:09:56Z</time>
      </trkpt>
      <trkpt lat="45.00219" lon="4.99134">
        <ele>171.26525878906</ele>
        <time>2009-04-15T12:10:05Z</time>
      </trkpt>
      <trkpt lat="45.00179" lon="4.99202">
        <ele>169.72274780273</ele>
        <time>2009-04-15T12:10:14Z</time>
      </trkpt>
      <trkpt lat="45.00156" lon="4.99259">
        <ele>169.15531921387</ele>
        <time>2009-04-15T12:10:21Z</time>
      </trkpt>
      <trkpt lat="45.00141" lon="4.99356">
        <ele>170.19062805176</ele>
        <time>2009-04-15T12:10:31Z</time>
      </trkpt>
      <trkpt lat="45.00134" lon="4.99376">
        <ele>170.69187927246</ele>
        <time>2009-04-15T12:10:34Z</time>
      </trkpt>
      <trkpt lat="45.00007" lon="4.99563">
        <ele>172.22413635254</ele>
        <time>2009-04-15T12:11:00Z</time>
      </trkpt>
      <trkpt lat="44.99946" lon="4.99664">
        <ele>172.62937927246</ele>
        <time>2009-04-15T12:11:14Z</time>
      </trkpt>
      <trkpt lat="44.99929" lon="4.99659">
        <ele>172.77325439453</ele>
        <time>2009-04-15T12:11:16Z</time>
      </trkpt>
      <trkpt lat="44.99913" lon="4.99671">
        <ele>173.05178833008</ele>
        <time>2009-04-15T12:11:19Z</time>
      </trkpt>
      <trkpt lat="44.99907" lon="4.99687">
        <ele>173.24404907227</ele>
        <time>2009-04-15T12:11:21Z</time>
      </trkpt>
      <trkpt lat="44.99912" lon="4.99717">
        <ele>173.60397338867</ele>
        <time>2009-04-15T12:11:24Z</time>
      </trkpt>
      <trkpt lat="44.99861" lon="4.99752">
        <ele>174.03993225098</ele>
        <time>2009-04-15T12:11:32Z</time>
      </trkpt>
      <trkpt lat="44.99831" lon="4.99779">
        <ele>174.69444274902</ele>
        <time>2009-04-15T12:11:38Z</time>
      </trkpt>
      <trkpt lat="44.99743" lon="4.99892">
        <ele>173.2707824707</ele>
        <time>2009-04-15T12:11:55Z</time>
      </trkpt>
      <trkpt lat="44.99718" lon="4.99948">
        <ele>173.14385986328</ele>
        <time>2009-04-15T12:12:02Z</time>
      </trkpt>
      <trkpt lat="44.99706" lon="5.0001">
        <ele>172</ele>
        <time>2009-04-15T12:12:08Z</time>
      </trkpt>
      <trkpt lat="44.99695" lon="5.00014">
        <ele>172</ele>
        <time>2009-04-15T12:12:10Z</time>
      </trkpt>
      <trkpt lat="44.99683" lon="5.00033">
        <ele>172</ele>
        <time>2009-04-15T12:12:13Z</time>
      </trkpt>
      <trkpt lat="44.99681" lon="5.00045">
        <ele>172</ele>
        <time>2009-04-15T12:12:14Z</time>
      </trkpt>
      <trkpt lat="44.99684" lon="5.00063">
        <ele>172</ele>
        <time>2009-04-15T12:12:16Z</time>
      </trkpt>
      <trkpt lat="44.99698" lon="5.0008">
        <ele>172</ele>
        <time>2009-04-15T12:12:18Z</time>
      </trkpt>
      <trkpt lat="44.99682" lon="5.00105">
        <ele>172</ele>
        <time>2009-04-15T12:12:22Z</time>
      </trkpt>
      <trkpt lat="44.99654" lon="5.00127">
        <ele>172</ele>
        <time>2009-04-15T12:12:27Z</time>
      </trkpt>
      <trkpt lat="44.99616" lon="5.00174">
        <ele>172</ele>
        <time>2009-04-15T12:12:34Z</time>
      </trkpt>
      <trkpt lat="44.99569" lon="5.00215">
        <ele>172</ele>
        <time>2009-04-15T12:12:42Z</time>
      </trkpt>
      <trkpt lat="44.99473" lon="5.003">
        <ele>172</ele>
        <time>2009-04-15T12:12:58Z</time>
      </trkpt>
      <trkpt lat="44.99449" lon="5.00313">
        <ele>172</ele>
        <time>2009-04-15T12:13:02Z</time>
      </trkpt>
      <trkpt lat="44.99207" lon="5.0039">
        <ele>171.01805114746</ele>
        <time>2009-04-15T12:13:38Z</time>
      </trkpt>
      <trkpt lat="44.99181" lon="5.00412">
        <ele>171</ele>
        <time>2009-04-15T12:13:43Z</time>
      </trkpt>
      <trkpt lat="44.9899" lon="5.00616">
        <ele>172</ele>
        <time>2009-04-15T12:14:18Z</time>
      </trkpt>
      <trkpt lat="44.98741" lon="5.00785">
        <ele>172</ele>
        <time>2009-04-15T12:14:58Z</time>
      </trkpt>
      <trkpt lat="44.98245" lon="5.015">
        <ele>176</ele>
        <time>2009-04-15T12:16:41Z</time>
      </trkpt>
      <trkpt lat="44.98154" lon="5.01646">
        <ele>177</ele>
        <time>2009-04-15T12:17:01Z</time>
      </trkpt>
      <trkpt lat="44.9806" lon="5.01733">
        <ele>178</ele>
        <time>2009-04-15T12:17:17Z</time>
      </trkpt>
      <trkpt lat="44.97956" lon="5.01857">
        <ele>181.16186523438</ele>
        <time>2009-04-15T12:17:37Z</time>
      </trkpt>
      <trkpt lat="44.97656" lon="5.02554">
        <ele>180</ele>
        <time>2009-04-15T12:19:01Z</time>
      </trkpt>
      <trkpt lat="44.97596" lon="5.02694">
        <ele>180.53582763672</ele>
        <time>2009-04-15T12:19:18Z</time>
      </trkpt>
      <trkpt lat="44.97571" lon="5.02738">
        <ele>181</ele>
        <time>2009-04-15T12:19:24Z</time>
      </trkpt>
      <trkpt lat="44.97531" lon="5.02778">
        <ele>182</ele>
        <time>2009-04-15T12:19:31Z</time>
      </trkpt>
      <trkpt lat="44.97499" lon="5.02767">
        <ele>182</ele>
        <time>2009-04-15T12:19:36Z</time>
      </trkpt>
      <trkpt lat="44.97468" lon="5.02865">
        <ele>183</ele>
        <time>2009-04-15T12:19:47Z</time>
      </trkpt>
      <trkpt lat="44.97458" lon="5.02918">
        <ele>183.04818725586</ele>
        <time>2009-04-15T12:19:52Z</time>
      </trkpt>
      <trkpt lat="44.97452" lon="5.03">
        <ele>184</ele>
        <time>2009-04-15T12:20:01Z</time>
      </trkpt>
      <trkpt lat="44.9745" lon="5.03116">
        <ele>185</ele>
        <time>2009-04-15T12:20:13Z</time>
      </trkpt>
      <trkpt lat="44.97469" lon="5.03702">
        <ele>190</ele>
        <time>2009-04-15T12:21:13Z</time>
      </trkpt>
      <trkpt lat="44.97401" lon="5.04062">
        <ele>193</ele>
        <time>2009-04-15T12:21:52Z</time>
      </trkpt>
      <trkpt lat="44.97375" lon="5.04263">
        <ele>195</ele>
        <time>2009-04-15T12:22:13Z</time>
      </trkpt>
      <trkpt lat="44.97348" lon="5.04326">
        <ele>195.86058044434</ele>
        <time>2009-04-15T12:22:20Z</time>
      </trkpt>
      <trkpt lat="44.97277" lon="5.04516">
        <ele>198</ele>
        <time>2009-04-15T12:22:42Z</time>
      </trkpt>
      <trkpt lat="44.97221" lon="5.0471">
        <ele>201.02479553223</ele>
        <time>2009-04-15T12:23:04Z</time>
      </trkpt>
      <trkpt lat="44.97202" lon="5.05287">
        <ele>210.73089599609</ele>
        <time>2009-04-15T12:24:03Z</time>
      </trkpt>
      <trkpt lat="44.97168" lon="5.05517">
        <ele>215.56533813477</ele>
        <time>2009-04-15T12:24:28Z</time>
      </trkpt>
      <trkpt lat="44.9714" lon="5.05636">
        <ele>217.89517211914</ele>
        <time>2009-04-15T12:24:41Z</time>
      </trkpt>
      <trkpt lat="44.97109" lon="5.05746">
        <ele>219.85539245606</ele>
        <time>2009-04-15T12:24:53Z</time>
      </trkpt>
      <trkpt lat="44.96999" lon="5.05947">
        <ele>219.96319580078</ele>
        <time>2009-04-15T12:25:19Z</time>
      </trkpt>
      <trkpt lat="44.9696" lon="5.06037">
        <ele>220</ele>
        <time>2009-04-15T12:25:30Z</time>
      </trkpt>
      <trkpt lat="44.96938" lon="5.0614">
        <ele>221.00930786133</ele>
        <time>2009-04-15T12:25:41Z</time>
      </trkpt>
      <trkpt lat="44.96931" lon="5.06158">
        <ele>221.33142089844</ele>
        <time>2009-04-15T12:25:43Z</time>
      </trkpt>
      <trkpt lat="44.96838" lon="5.06344">
        <ele>223.48696899414</ele>
        <time>2009-04-15T12:26:06Z</time>
      </trkpt>
      <trkpt lat="44.96748" lon="5.06546">
        <ele>225.60876464844</ele>
        <time>2009-04-15T12:26:31Z</time>
      </trkpt>
      <trkpt lat="44.96695" lon="5.06653">
        <ele>227</ele>
        <time>2009-04-15T12:26:44Z</time>
      </trkpt>
      <trkpt lat="44.96678" lon="5.06712">
        <ele>228</ele>
        <time>2009-04-15T12:26:51Z</time>
      </trkpt>
      <trkpt lat="44.96653" lon="5.06861">
        <ele>230.49092102051</ele>
        <time>2009-04-15T12:27:07Z</time>
      </trkpt>
      <trkpt lat="44.96605" lon="5.07037">
        <ele>234</ele>
        <time>2009-04-15T12:27:26Z</time>
      </trkpt>
      <trkpt lat="44.96584" lon="5.07088">
        <ele>234.98187255859</ele>
        <time>2009-04-15T12:27:32Z</time>
      </trkpt>
      <trkpt lat="44.96547" lon="5.07142">
        <ele>236.03497314453</ele>
        <time>2009-04-15T12:27:40Z</time>
      </trkpt>
      <trkpt lat="44.96542" lon="5.07163">
        <ele>236.42430114746</ele>
        <time>2009-04-15T12:27:42Z</time>
      </trkpt>
      <trkpt lat="44.96512" lon="5.0734">
        <ele>239.13774108887</ele>
        <time>2009-04-15T12:28:01Z</time>
      </trkpt>
      <trkpt lat="44.96504" lon="5.07359">
        <ele>239.79598999023</ele>
        <time>2009-04-15T12:28:03Z</time>
      </trkpt>
      <trkpt lat="44.96498" lon="5.07459">
        <ele>241.55711364746</ele>
        <time>2009-04-15T12:28:14Z</time>
      </trkpt>
      <trkpt lat="44.96504" lon="5.07476">
        <ele>241.880859375</ele>
        <time>2009-04-15T12:28:16Z</time>
      </trkpt>
      <trkpt lat="44.96503" lon="5.07537">
        <ele>243.29481506348</ele>
        <time>2009-04-15T12:28:22Z</time>
      </trkpt>
      <trkpt lat="44.96494" lon="5.07598">
        <ele>244.6319732666</ele>
        <time>2009-04-15T12:28:28Z</time>
      </trkpt>
      <trkpt lat="44.96496" lon="5.07777">
        <ele>248.14642333984</ele>
        <time>2009-04-15T12:28:47Z</time>
      </trkpt>
      <trkpt lat="44.96426" lon="5.07995">
        <ele>253</ele>
        <time>2009-04-15T12:29:11Z</time>
      </trkpt>
      <trkpt lat="44.96414" lon="5.07994">
        <ele>253.07000732422</ele>
        <time>2009-04-15T12:29:13Z</time>
      </trkpt>
      <trkpt lat="44.96406" lon="5.08007">
        <ele>253.53459167481</ele>
        <time>2009-04-15T12:29:15Z</time>
      </trkpt>
      <trkpt lat="44.96409" lon="5.08021">
        <ele>253.82525634766</ele>
        <time>2009-04-15T12:29:16Z</time>
      </trkpt>
      <trkpt lat="44.96418" lon="5.08025">
        <ele>253.89923095703</ele>
        <time>2009-04-15T12:29:18Z</time>
      </trkpt>
      <trkpt lat="44.96414" lon="5.08151">
        <ele>256.03897094727</ele>
        <time>2009-04-15T12:29:31Z</time>
      </trkpt>
      <trkpt lat="44.96416" lon="5.08226">
        <ele>257.15432739258</ele>
        <time>2009-04-15T12:29:39Z</time>
      </trkpt>
      <trkpt lat="44.96427" lon="5.08271">
        <ele>258</ele>
        <time>2009-04-15T12:29:43Z</time>
      </trkpt>
      <trkpt lat="44.9643" lon="5.08319">
        <ele>259.48388671875</ele>
        <time>2009-04-15T12:29:48Z</time>
      </trkpt>
      <trkpt lat="44.96419" lon="5.08499">
        <ele>263.96408081055</ele>
        <time>2009-04-15T12:30:07Z</time>
      </trkpt>
      <trkpt lat="44.96419" lon="5.08609">
        <ele>266.92431640625</ele>
        <time>2009-04-15T12:30:18Z</time>
      </trkpt>
      <trkpt lat="44.96412" lon="5.08648">
        <ele>267.44384765625</ele>
        <time>2009-04-15T12:30:22Z</time>
      </trkpt>
      <trkpt lat="44.96294" lon="5.08923">
        <ele>276.22821044922</ele>
        <time>2009-04-15T12:30:56Z</time>
      </trkpt>
      <trkpt lat="44.96197" lon="5.09166">
        <ele>282.97607421875</ele>
        <time>2009-04-15T12:31:24Z</time>
      </trkpt>
      <trkpt lat="44.96154" lon="5.09294">
        <ele>286.58346557617</ele>
        <time>2009-04-15T12:31:39Z</time>
      </trkpt>
      <trkpt lat="44.96116" lon="5.09435">
        <ele>290.65948486328</ele>
        <time>2009-04-15T12:31:54Z</time>
      </trkpt>
      <trkpt lat="44.96083" lon="5.09819">
        <ele>301.4833984375</ele>
        <time>2009-04-15T12:32:34Z</time>
      </trkpt>
      <trkpt lat="44.96036" lon="5.10016">
        <ele>307.5764465332</ele>
        <time>2009-04-15T12:32:56Z</time>
      </trkpt>
      <trkpt lat="44.96029" lon="5.10068">
        <ele>309.42947387695</ele>
        <time>2009-04-15T12:33:01Z</time>
      </trkpt>
      <trkpt lat="44.96024" lon="5.10399">
        <ele>319.36428833008</ele>
        <time>2009-04-15T12:33:35Z</time>
      </trkpt>
      <trkpt lat="44.96015" lon="5.10648">
        <ele>327.32843017578</ele>
        <time>2009-04-15T12:34:01Z</time>
      </trkpt>
      <trkpt lat="44.95888" lon="5.11073">
        <ele>340.62860107422</ele>
        <time>2009-04-15T12:34:48Z</time>
      </trkpt>
      <trkpt lat="44.95743" lon="5.11674">
        <ele>361.44534301758</ele>
        <time>2009-04-15T12:35:54Z</time>
      </trkpt>
      <trkpt lat="44.95704" lon="5.11794">
        <ele>365.58380126953</ele>
        <time>2009-04-15T12:36:07Z</time>
      </trkpt>
      <trkpt lat="44.95642" lon="5.11945">
        <ele>370.01797485352</ele>
        <time>2009-04-15T12:36:25Z</time>
      </trkpt>
      <trkpt lat="44.95641" lon="5.12706">
        <ele>391.34173583984</ele>
        <time>2009-04-15T12:37:44Z</time>
      </trkpt>
      <trkpt lat="44.95635" lon="5.12719">
        <ele>391.90124511719</ele>
        <time>2009-04-15T12:37:45Z</time>
      </trkpt>
      <trkpt lat="44.9563" lon="5.12801">
        <ele>394.27081298828</ele>
        <time>2009-04-15T12:37:54Z</time>
      </trkpt>
      <trkpt lat="44.95631" lon="5.12835">
        <ele>395.3254699707</ele>
        <time>2009-04-15T12:37:57Z</time>
      </trkpt>
      <trkpt lat="44.95637" lon="5.12844">
        <ele>395.42266845703</ele>
        <time>2009-04-15T12:37:59Z</time>
      </trkpt>
      <trkpt lat="44.95643" lon="5.13014">
        <ele>400.64953613281</ele>
        <time>2009-04-15T12:38:16Z</time>
      </trkpt>
      <trkpt lat="44.9558" lon="5.1301">
        <ele>405.1565246582</ele>
        <time>2009-04-15T12:38:25Z</time>
      </trkpt>
      <trkpt lat="44.95643" lon="5.13014">
        <ele>400.64953613281</ele>
        <time>2009-04-15T12:38:35Z</time>
      </trkpt>
      <trkpt lat="44.95637" lon="5.12844">
        <ele>395.42266845703</ele>
        <time>2009-04-15T12:38:52Z</time>
      </trkpt>
      <trkpt lat="44.95639" lon="5.12804">
        <ele>393.99462890625</ele>
        <time>2009-04-15T12:38:56Z</time>
      </trkpt>
      <trkpt lat="44.95641" lon="5.12783">
        <ele>393.92596435547</ele>
        <time>2009-04-15T12:38:58Z</time>
      </trkpt>
      <trkpt lat="44.95513" lon="5.12638">
        <ele>390.96789550781</ele>
        <time>2009-04-15T12:39:22Z</time>
      </trkpt>
      <trkpt lat="44.95381" lon="5.12586">
        <ele>383.3479309082</ele>
        <time>2009-04-15T12:39:42Z</time>
      </trkpt>
      <trkpt lat="44.95363" lon="5.12575">
        <ele>383.65631103516</ele>
        <time>2009-04-15T12:39:45Z</time>
      </trkpt>
      <trkpt lat="44.95335" lon="5.12542">
        <ele>383</ele>
        <time>2009-04-15T12:39:50Z</time>
      </trkpt>
      <trkpt lat="44.9532" lon="5.12513">
        <ele>382.46862792969</ele>
        <time>2009-04-15T12:39:54Z</time>
      </trkpt>
      <trkpt lat="44.95271" lon="5.12481">
        <ele>379.99169921875</ele>
        <time>2009-04-15T12:40:02Z</time>
      </trkpt>
      <trkpt lat="44.9518" lon="5.12447">
        <ele>377.09283447266</ele>
        <time>2009-04-15T12:40:16Z</time>
      </trkpt>
      <trkpt lat="44.95125" lon="5.12406">
        <ele>377.12313842773</ele>
        <time>2009-04-15T12:40:25Z</time>
      </trkpt>
      <trkpt lat="44.95055" lon="5.1233">
        <ele>376.89999389648</ele>
        <time>2009-04-15T12:40:38Z</time>
      </trkpt>
      <trkpt lat="44.95034" lon="5.12297">
        <ele>376.53662109375</ele>
        <time>2009-04-15T12:40:42Z</time>
      </trkpt>
      <trkpt lat="44.94898" lon="5.12119">
        <ele>373.28424072266</ele>
        <time>2009-04-15T12:41:09Z</time>
      </trkpt>
      <trkpt lat="44.94869" lon="5.12097">
        <ele>372.49118041992</ele>
        <time>2009-04-15T12:41:14Z</time>
      </trkpt>
      <trkpt lat="44.94789" lon="5.12069">
        <ele>371.76956176758</ele>
        <time>2009-04-15T12:41:26Z</time>
      </trkpt>
      <trkpt lat="44.94682" lon="5.12006">
        <ele>367.86264038086</ele>
        <time>2009-04-15T12:41:43Z</time>
      </trkpt>
      <trkpt lat="44.94573" lon="5.11979">
        <ele>368.24426269531</ele>
        <time>2009-04-15T12:41:59Z</time>
      </trkpt>
      <trkpt lat="44.94521" lon="5.11961">
        <ele>366.44906616211</ele>
        <time>2009-04-15T12:42:07Z</time>
      </trkpt>
      <trkpt lat="44.94444" lon="5.11902">
        <ele>361.92407226562</ele>
        <time>2009-04-15T12:42:19Z</time>
      </trkpt>
      <trkpt lat="44.94419" lon="5.11889">
        <ele>360.09414672852</ele>
        <time>2009-04-15T12:42:23Z</time>
      </trkpt>
      <trkpt lat="44.94393" lon="5.11888">
        <ele>359.97229003906</ele>
        <time>2009-04-15T12:42:27Z</time>
      </trkpt>
      <trkpt lat="44.94325" lon="5.11915">
        <ele>361.94058227539</ele>
        <time>2009-04-15T12:42:37Z</time>
      </trkpt>
      <trkpt lat="44.94286" lon="5.11916">
        <ele>363.38714599609</ele>
        <time>2009-04-15T12:42:43Z</time>
      </trkpt>
      <trkpt lat="44.9425" lon="5.11903">
        <ele>364.50415039062</ele>
        <time>2009-04-15T12:42:48Z</time>
      </trkpt>
      <trkpt lat="44.94149" lon="5.11846">
        <ele>365.45663452148</ele>
        <time>2009-04-15T12:43:04Z</time>
      </trkpt>
      <trkpt lat="44.94059" lon="5.1181">
        <ele>368.01708984375</ele>
        <time>2009-04-15T12:43:18Z</time>
      </trkpt>
      <trkpt lat="44.94034" lon="5.11794">
        <ele>369.14923095703</ele>
        <time>2009-04-15T12:43:22Z</time>
      </trkpt>
      <trkpt lat="44.94024" lon="5.11782">
        <ele>369.43078613281</ele>
        <time>2009-04-15T12:43:24Z</time>
      </trkpt>
      <trkpt lat="44.94015" lon="5.1176">
        <ele>369.27111816406</ele>
        <time>2009-04-15T12:43:26Z</time>
      </trkpt>
      <trkpt lat="44.94014" lon="5.11748">
        <ele>368.92092895508</ele>
        <time>2009-04-15T12:43:28Z</time>
      </trkpt>
      <trkpt lat="44.93999" lon="5.11742">
        <ele>369.77752685547</ele>
        <time>2009-04-15T12:43:30Z</time>
      </trkpt>
      <trkpt lat="44.93955" lon="5.117">
        <ele>371.45123291016</ele>
        <time>2009-04-15T12:43:38Z</time>
      </trkpt>
      <trkpt lat="44.93854" lon="5.11639">
        <ele>377.00604248047</ele>
        <time>2009-04-15T12:43:54Z</time>
      </trkpt>
      <trkpt lat="44.93788" lon="5.11627">
        <ele>375.67742919922</ele>
        <time>2009-04-15T12:44:03Z</time>
      </trkpt>
      <trkpt lat="44.93729" lon="5.11594">
        <ele>363.74743652344</ele>
        <time>2009-04-15T12:44:13Z</time>
      </trkpt>
      <trkpt lat="44.93662" lon="5.11566">
        <ele>364.03308105469</ele>
        <time>2009-04-15T12:44:23Z</time>
      </trkpt>
      <trkpt lat="44.93644" lon="5.1155">
        <ele>364.43539428711</ele>
        <time>2009-04-15T12:44:26Z</time>
      </trkpt>
      <trkpt lat="44.93609" lon="5.11495">
        <ele>363.88482666016</ele>
        <time>2009-04-15T12:44:34Z</time>
      </trkpt>
      <trkpt lat="44.93585" lon="5.1147">
        <ele>364.68222045898</ele>
        <time>2009-04-15T12:44:38Z</time>
      </trkpt>
      <trkpt lat="44.93489" lon="5.11428">
        <ele>366.61972045898</ele>
        <time>2009-04-15T12:44:52Z</time>
      </trkpt>
      <trkpt lat="44.93387" lon="5.11344">
        <ele>361.29986572266</ele>
        <time>2009-04-15T12:45:10Z</time>
      </trkpt>
      <trkpt lat="44.93342" lon="5.11315">
        <ele>362.06927490234</ele>
        <time>2009-04-15T12:45:17Z</time>
      </trkpt>
      <trkpt lat="44.93292" lon="5.11323">
        <ele>364.25762939453</ele>
        <time>2009-04-15T12:45:24Z</time>
      </trkpt>
      <trkpt lat="44.93228" lon="5.11322">
        <ele>365.7587890625</ele>
        <time>2009-04-15T12:45:34Z</time>
      </trkpt>
      <trkpt lat="44.93144" lon="5.11333">
        <ele>364.33200073242</ele>
        <time>2009-04-15T12:45:46Z</time>
      </trkpt>
      <trkpt lat="44.93135" lon="5.11336">
        <ele>364.23236083984</ele>
        <time>2009-04-15T12:45:47Z</time>
      </trkpt>
      <trkpt lat="44.93109" lon="5.11363">
        <ele>366.26852416992</ele>
        <time>2009-04-15T12:45:52Z</time>
      </trkpt>
      <trkpt lat="44.93093" lon="5.1136">
        <ele>366.55209350586</ele>
        <time>2009-04-15T12:45:54Z</time>
      </trkpt>
      <trkpt lat="44.9306" lon="5.11324">
        <ele>368.03448486328</ele>
        <time>2009-04-15T12:46:00Z</time>
      </trkpt>
      <trkpt lat="44.92979" lon="5.11253">
        <ele>377.72607421875</ele>
        <time>2009-04-15T12:46:14Z</time>
      </trkpt>
      <trkpt lat="44.92958" lon="5.11244">
        <ele>378.37222290039</ele>
        <time>2009-04-15T12:46:17Z</time>
      </trkpt>
      <trkpt lat="44.92909" lon="5.11237">
        <ele>377.44662475586</ele>
        <time>2009-04-15T12:46:24Z</time>
      </trkpt>
      <trkpt lat="44.92864" lon="5.11208">
        <ele>374.97668457031</ele>
        <time>2009-04-15T12:46:32Z</time>
      </trkpt>
      <trkpt lat="44.92781" lon="5.11105">
        <ele>374.78045654297</ele>
        <time>2009-04-15T12:46:48Z</time>
      </trkpt>
      <trkpt lat="44.92721" lon="5.11043">
        <ele>382.77310180664</ele>
        <time>2009-04-15T12:46:59Z</time>
      </trkpt>
      <trkpt lat="44.9268" lon="5.10967">
        <ele>387.76440429688</ele>
        <time>2009-04-15T12:47:08Z</time>
      </trkpt>
      <trkpt lat="44.92649" lon="5.10927">
        <ele>388.63870239258</ele>
        <time>2009-04-15T12:47:15Z</time>
      </trkpt>
      <trkpt lat="44.92587" lon="5.10871">
        <ele>390.53668212891</ele>
        <time>2009-04-15T12:47:25Z</time>
      </trkpt>
      <trkpt lat="44.92548" lon="5.10842">
        <ele>392.58401489258</ele>
        <time>2009-04-15T12:47:32Z</time>
      </trkpt>
      <trkpt lat="44.92492" lon="5.10809">
        <ele>395.03317260742</ele>
        <time>2009-04-15T12:47:41Z</time>
      </trkpt>
      <trkpt lat="44.92456" lon="5.10796">
        <ele>397.47766113281</ele>
        <time>2009-04-15T12:47:46Z</time>
      </trkpt>
      <trkpt lat="44.92421" lon="5.1079">
        <ele>400.41741943359</ele>
        <time>2009-04-15T12:47:51Z</time>
      </trkpt>
      <trkpt lat="44.92395" lon="5.10798">
        <ele>402.02105712891</ele>
        <time>2009-04-15T12:47:55Z</time>
      </trkpt>
      <trkpt lat="44.92336" lon="5.10843">
        <ele>402.15585327148</ele>
        <time>2009-04-15T12:48:05Z</time>
      </trkpt>
      <trkpt lat="44.92267" lon="5.1086">
        <ele>394.40182495117</ele>
        <time>2009-04-15T12:48:15Z</time>
      </trkpt>
      <trkpt lat="44.92244" lon="5.10886">
        <ele>392.89605712891</ele>
        <time>2009-04-15T12:48:19Z</time>
      </trkpt>
      <trkpt lat="44.92212" lon="5.10885">
        <ele>391.37564086914</ele>
        <time>2009-04-15T12:48:24Z</time>
      </trkpt>
      <trkpt lat="44.92193" lon="5.10869">
        <ele>388.28323364258</ele>
        <time>2009-04-15T12:48:27Z</time>
      </trkpt>
      <trkpt lat="44.92166" lon="5.10803">
        <ele>385.94375610352</ele>
        <time>2009-04-15T12:48:35Z</time>
      </trkpt>
      <trkpt lat="44.92093" lon="5.10758">
        <ele>388.60018920898</ele>
        <time>2009-04-15T12:48:47Z</time>
      </trkpt>
      <trkpt lat="44.92039" lon="5.10713">
        <ele>388.26028442383</ele>
        <time>2009-04-15T12:48:56Z</time>
      </trkpt>
      <trkpt lat="44.91997" lon="5.10651">
        <ele>386.43658447266</ele>
        <time>2009-04-15T12:49:04Z</time>
      </trkpt>
      <trkpt lat="44.91975" lon="5.106">
        <ele>384.19961547852</ele>
        <time>2009-04-15T12:49:11Z</time>
      </trkpt>
      <trkpt lat="44.91961" lon="5.10583">
        <ele>383.39605712891</ele>
        <time>2009-04-15T12:49:13Z</time>
      </trkpt>
      <trkpt lat="44.9186" lon="5.1051">
        <ele>379.36056518555</ele>
        <time>2009-04-15T12:49:30Z</time>
      </trkpt>
      <trkpt lat="44.91836" lon="5.105">
        <ele>379.00006103516</ele>
        <time>2009-04-15T12:49:33Z</time>
      </trkpt>
      <trkpt lat="44.91801" lon="5.10503">
        <ele>379.09075927734</ele>
        <time>2009-04-15T12:49:39Z</time>
      </trkpt>
      <trkpt lat="44.91761" lon="5.10528">
        <ele>379.01077270508</ele>
        <time>2009-04-15T12:49:45Z</time>
      </trkpt>
      <trkpt lat="44.91744" lon="5.10525">
        <ele>378.89956665039</ele>
        <time>2009-04-15T12:49:47Z</time>
      </trkpt>
      <trkpt lat="44.91626" lon="5.10433">
        <ele>374.12338256836</ele>
        <time>2009-04-15T12:50:07Z</time>
      </trkpt>
      <trkpt lat="44.91625" lon="5.10426">
        <ele>373.82983398438</ele>
        <time>2009-04-15T12:50:08Z</time>
      </trkpt>
      <trkpt lat="44.91559" lon="5.10387">
        <ele>371.04986572266</ele>
        <time>2009-04-15T12:50:18Z</time>
      </trkpt>
      <trkpt lat="44.9151" lon="5.10366">
        <ele>371.17639160156</ele>
        <time>2009-04-15T12:50:26Z</time>
      </trkpt>
      <trkpt lat="44.91417" lon="5.10371">
        <ele>380.99047851562</ele>
        <time>2009-04-15T12:50:39Z</time>
      </trkpt>
      <trkpt lat="44.914" lon="5.10368">
        <ele>381.74249267578</ele>
        <time>2009-04-15T12:50:42Z</time>
      </trkpt>
      <trkpt lat="44.91392" lon="5.10367">
        <ele>382.07070922852</ele>
        <time>2009-04-15T12:50:43Z</time>
      </trkpt>
      <trkpt lat="44.91404" lon="5.10481">
        <ele>382.76986694336</ele>
        <time>2009-04-15T12:50:55Z</time>
      </trkpt>
      <trkpt lat="44.91407" lon="5.10552">
        <ele>381.3923034668</ele>
        <time>2009-04-15T12:51:02Z</time>
      </trkpt>
      <trkpt lat="44.91405" lon="5.10806">
        <ele>380.00909423828</ele>
        <time>2009-04-15T12:51:28Z</time>
      </trkpt>
      <trkpt lat="44.91397" lon="5.10916">
        <ele>386.54241943359</ele>
        <time>2009-04-15T12:51:40Z</time>
      </trkpt>
      <trkpt lat="44.9138" lon="5.10994">
        <ele>391.34771728516</ele>
        <time>2009-04-15T12:51:48Z</time>
      </trkpt>
      <trkpt lat="44.91361" lon="5.11047">
        <ele>392.37631225586</ele>
        <time>2009-04-15T12:51:54Z</time>
      </trkpt>
      <trkpt lat="44.91275" lon="5.10948">
        <ele>391.42501831055</ele>
        <time>2009-04-15T12:52:10Z</time>
      </trkpt>
      <trkpt lat="44.91271" lon="5.1094">
        <ele>391.58981323242</ele>
        <time>2009-04-15T12:52:11Z</time>
      </trkpt>
      <trkpt lat="44.91267" lon="5.10895">
        <ele>390.68508911133</ele>
        <time>2009-04-15T12:52:16Z</time>
      </trkpt>
      <trkpt lat="44.91278" lon="5.1089">
        <ele>388.98654174805</ele>
        <time>2009-04-15T12:52:18Z</time>
      </trkpt>
      <trkpt lat="44.91313" lon="5.10854">
        <ele>381.26599121094</ele>
        <time>2009-04-15T12:52:24Z</time>
      </trkpt>
      <trkpt lat="44.9134" lon="5.10812">
        <ele>380</ele>
        <time>2009-04-15T12:52:30Z</time>
      </trkpt>
      <trkpt lat="44.91324" lon="5.10596">
        <ele>385.02392578125</ele>
        <time>2009-04-15T12:52:52Z</time>
      </trkpt>
      <trkpt lat="44.91327" lon="5.10546">
        <ele>385.6943359375</ele>
        <time>2009-04-15T12:52:57Z</time>
      </trkpt>
      <trkpt lat="44.9135" lon="5.10417">
        <ele>385.40518188477</ele>
        <time>2009-04-15T12:53:11Z</time>
      </trkpt>
      <trkpt lat="44.91366" lon="5.10387">
        <ele>383.81912231445</ele>
        <time>2009-04-15T12:53:15Z</time>
      </trkpt>
      <trkpt lat="44.91393" lon="5.10377">
        <ele>382.34439086914</ele>
        <time>2009-04-15T12:53:19Z</time>
      </trkpt>
      <trkpt lat="44.91383" lon="5.10286">
        <ele>381.21270751953</ele>
        <time>2009-04-15T12:53:29Z</time>
      </trkpt>
      <trkpt lat="44.91409" lon="5.10136">
        <ele>375.17431640625</ele>
        <time>2009-04-15T12:53:45Z</time>
      </trkpt>
      <trkpt lat="44.91463" lon="5.09863">
        <ele>360.02230834961</ele>
        <time>2009-04-15T12:54:14Z</time>
      </trkpt>
      <trkpt lat="44.91465" lon="5.0984">
        <ele>359.24041748047</ele>
        <time>2009-04-15T12:54:16Z</time>
      </trkpt>
      <trkpt lat="44.91462" lon="5.0981">
        <ele>358.16067504883</ele>
        <time>2009-04-15T12:54:19Z</time>
      </trkpt>
      <trkpt lat="44.9143" lon="5.09731">
        <ele>356.16555786133</ele>
        <time>2009-04-15T12:54:29Z</time>
      </trkpt>
      <trkpt lat="44.91421" lon="5.09698">
        <ele>355.12835693359</ele>
        <time>2009-04-15T12:54:32Z</time>
      </trkpt>
      <trkpt lat="44.91336" lon="5.09296">
        <ele>342.65557861328</ele>
        <time>2009-04-15T12:55:16Z</time>
      </trkpt>
      <trkpt lat="44.91268" lon="5.0911">
        <ele>338.3327331543</ele>
        <time>2009-04-15T12:55:37Z</time>
      </trkpt>
      <trkpt lat="44.91218" lon="5.08991">
        <ele>335.82144165039</ele>
        <time>2009-04-15T12:55:51Z</time>
      </trkpt>
      <trkpt lat="44.91208" lon="5.08959">
        <ele>335.27056884766</ele>
        <time>2009-04-15T12:55:55Z</time>
      </trkpt>
      <trkpt lat="44.9114" lon="5.08634">
        <ele>328.78439331055</ele>
        <time>2009-04-15T12:56:30Z</time>
      </trkpt>
      <trkpt lat="44.91137" lon="5.08513">
        <ele>326.10345458984</ele>
        <time>2009-04-15T12:56:42Z</time>
      </trkpt>
      <trkpt lat="44.91152" lon="5.07972">
        <ele>309.52691650391</ele>
        <time>2009-04-15T12:57:38Z</time>
      </trkpt>
      <trkpt lat="44.91151" lon="5.07893">
        <ele>307.27227783203</ele>
        <time>2009-04-15T12:57:46Z</time>
      </trkpt>
      <trkpt lat="44.91143" lon="5.07828">
        <ele>305.65859985352</ele>
        <time>2009-04-15T12:57:53Z</time>
      </trkpt>
      <trkpt lat="44.91063" lon="5.07345">
        <ele>293.93295288086</ele>
        <time>2009-04-15T12:58:44Z</time>
      </trkpt>
      <trkpt lat="44.91056" lon="5.07273">
        <ele>290.64138793945</ele>
        <time>2009-04-15T12:58:52Z</time>
      </trkpt>
      <trkpt lat="44.91059" lon="5.07228">
        <ele>288.20776367188</ele>
        <time>2009-04-15T12:58:56Z</time>
      </trkpt>
      <trkpt lat="44.91064" lon="5.07207">
        <ele>287.07275390625</ele>
        <time>2009-04-15T12:58:59Z</time>
      </trkpt>
      <trkpt lat="44.91098" lon="5.07106">
        <ele>288.51831054688</ele>
        <time>2009-04-15T12:59:10Z</time>
      </trkpt>
      <trkpt lat="44.91103" lon="5.0705">
        <ele>288.45831298828</ele>
        <time>2009-04-15T12:59:16Z</time>
      </trkpt>
      <trkpt lat="44.91038" lon="5.05883">
        <ele>270.15997314453</ele>
        <time>2009-04-15T13:01:17Z</time>
      </trkpt>
      <trkpt lat="44.91047" lon="5.05682">
        <ele>266.24029541016</ele>
        <time>2009-04-15T13:01:37Z</time>
      </trkpt>
      <trkpt lat="44.91053" lon="5.0566">
        <ele>265.69064331055</ele>
        <time>2009-04-15T13:01:40Z</time>
      </trkpt>
      <trkpt lat="44.9107" lon="5.0547">
        <ele>262.48400878906</ele>
        <time>2009-04-15T13:02:00Z</time>
      </trkpt>
      <trkpt lat="44.91064" lon="5.05457">
        <ele>262.13879394531</ele>
        <time>2009-04-15T13:02:01Z</time>
      </trkpt>
      <trkpt lat="44.91068" lon="5.0539">
        <ele>261.01739501953</ele>
        <time>2009-04-15T13:02:08Z</time>
      </trkpt>
      <trkpt lat="44.91073" lon="5.05348">
        <ele>260.32897949219</ele>
        <time>2009-04-15T13:02:13Z</time>
      </trkpt>
      <trkpt lat="44.91129" lon="5.05348">
        <ele>261</ele>
        <time>2009-04-15T13:02:21Z</time>
      </trkpt>
      <trkpt lat="44.91136" lon="5.05376">
        <ele>261.53619384766</ele>
        <time>2009-04-15T13:02:24Z</time>
      </trkpt>
      <trkpt lat="44.91149" lon="5.05386">
        <ele>261.93481445312</ele>
        <time>2009-04-15T13:02:26Z</time>
      </trkpt>
      <trkpt lat="44.91267" lon="5.05435">
        <ele>263.65963745117</ele>
        <time>2009-04-15T13:02:44Z</time>
      </trkpt>
      <trkpt lat="44.91287" lon="5.05454">
        <ele>264</ele>
        <time>2009-04-15T13:02:47Z</time>
      </trkpt>
      <trkpt lat="44.91309" lon="5.05453">
        <ele>264</ele>
        <time>2009-04-15T13:02:51Z</time>
      </trkpt>
      <trkpt lat="44.91359" lon="5.05475">
        <ele>264.0998840332</ele>
        <time>2009-04-15T13:02:58Z</time>
      </trkpt>
      <trkpt lat="44.91795" lon="5.05629">
        <ele>265.64453125</ele>
        <time>2009-04-15T13:04:04Z</time>
      </trkpt>
      <trkpt lat="44.91847" lon="5.0564">
        <ele>266</ele>
        <time>2009-04-15T13:04:11Z</time>
      </trkpt>
      <trkpt lat="44.9189" lon="5.05634">
        <ele>265.82476806641</ele>
        <time>2009-04-15T13:04:18Z</time>
      </trkpt>
      <trkpt lat="44.92021" lon="5.05557">
        <ele>264</ele>
        <time>2009-04-15T13:04:38Z</time>
      </trkpt>
      <trkpt lat="44.92059" lon="5.0551">
        <ele>262.35986328125</ele>
        <time>2009-04-15T13:04:46Z</time>
      </trkpt>
      <trkpt lat="44.92136" lon="5.05381">
        <ele>259.71643066406</ele>
        <time>2009-04-15T13:05:03Z</time>
      </trkpt>
      <trkpt lat="44.92327" lon="5.05112">
        <ele>254.03129577637</ele>
        <time>2009-04-15T13:05:42Z</time>
      </trkpt>
      <trkpt lat="44.92443" lon="5.04874">
        <ele>250</ele>
        <time>2009-04-15T13:06:12Z</time>
      </trkpt>
      <trkpt lat="44.9246" lon="5.04832">
        <ele>249</ele>
        <time>2009-04-15T13:06:17Z</time>
      </trkpt>
      <trkpt lat="44.92475" lon="5.04804">
        <ele>248.84497070312</ele>
        <time>2009-04-15T13:06:21Z</time>
      </trkpt>
      <trkpt lat="44.92548" lon="5.04699">
        <ele>246.04458618164</ele>
        <time>2009-04-15T13:06:36Z</time>
      </trkpt>
      <trkpt lat="44.92644" lon="5.0452">
        <ele>243.13548278809</ele>
        <time>2009-04-15T13:06:59Z</time>
      </trkpt>
      <trkpt lat="44.92753" lon="5.04408">
        <ele>238.61698913574</ele>
        <time>2009-04-15T13:07:19Z</time>
      </trkpt>
      <trkpt lat="44.92809" lon="5.04385">
        <ele>236</ele>
        <time>2009-04-15T13:07:27Z</time>
      </trkpt>
      <trkpt lat="44.92938" lon="5.04292">
        <ele>234</ele>
        <time>2009-04-15T13:07:48Z</time>
      </trkpt>
      <trkpt lat="44.92983" lon="5.04236">
        <ele>232.4953918457</ele>
        <time>2009-04-15T13:07:57Z</time>
      </trkpt>
      <trkpt lat="44.93011" lon="5.04189">
        <ele>231.48323059082</ele>
        <time>2009-04-15T13:08:03Z</time>
      </trkpt>
      <trkpt lat="44.9307" lon="5.04107">
        <ele>229</ele>
        <time>2009-04-15T13:08:15Z</time>
      </trkpt>
      <trkpt lat="44.93149" lon="5.03982">
        <ele>226.22196960449</ele>
        <time>2009-04-15T13:08:32Z</time>
      </trkpt>
      <trkpt lat="44.93173" lon="5.03937">
        <ele>224.77789306641</ele>
        <time>2009-04-15T13:08:38Z</time>
      </trkpt>
      <trkpt lat="44.93254" lon="5.03706">
        <ele>219.35409545898</ele>
        <time>2009-04-15T13:09:05Z</time>
      </trkpt>
      <trkpt lat="44.93268" lon="5.0363">
        <ele>218.24394226074</ele>
        <time>2009-04-15T13:09:13Z</time>
      </trkpt>
      <trkpt lat="44.9329" lon="5.03597">
        <ele>218</ele>
        <time>2009-04-15T13:09:18Z</time>
      </trkpt>
      <trkpt lat="44.933" lon="5.03575">
        <ele>217.93849182129</ele>
        <time>2009-04-15T13:09:20Z</time>
      </trkpt>
      <trkpt lat="44.93312" lon="5.03486">
        <ele>216.88186645508</ele>
        <time>2009-04-15T13:09:30Z</time>
      </trkpt>
      <trkpt lat="44.93326" lon="5.0332">
        <ele>214.51922607422</ele>
        <time>2009-04-15T13:09:47Z</time>
      </trkpt>
      <trkpt lat="44.93388" lon="5.03072">
        <ele>211</ele>
        <time>2009-04-15T13:10:14Z</time>
      </trkpt>
      <trkpt lat="44.93398" lon="5.03059">
        <ele>210.71578979492</ele>
        <time>2009-04-15T13:10:16Z</time>
      </trkpt>
      <trkpt lat="44.93443" lon="5.02866">
        <ele>208</ele>
        <time>2009-04-15T13:10:37Z</time>
      </trkpt>
      <trkpt lat="44.93443" lon="5.02848">
        <ele>208</ele>
        <time>2009-04-15T13:10:39Z</time>
      </trkpt>
      <trkpt lat="44.93452" lon="5.02812">
        <ele>207.2321472168</ele>
        <time>2009-04-15T13:10:43Z</time>
      </trkpt>
      <trkpt lat="44.93495" lon="5.02679">
        <ele>205.44451904297</ele>
        <time>2009-04-15T13:10:58Z</time>
      </trkpt>
      <trkpt lat="44.93512" lon="5.02633">
        <ele>204.90869140625</ele>
        <time>2009-04-15T13:11:03Z</time>
      </trkpt>
      <trkpt lat="44.93527" lon="5.02607">
        <ele>204.02877807617</ele>
        <time>2009-04-15T13:11:07Z</time>
      </trkpt>
      <trkpt lat="44.9354" lon="5.02608">
        <ele>204</ele>
        <time>2009-04-15T13:11:08Z</time>
      </trkpt>
      <trkpt lat="44.93552" lon="5.02593">
        <ele>204</ele>
        <time>2009-04-15T13:11:11Z</time>
      </trkpt>
      <trkpt lat="44.93551" lon="5.02569">
        <ele>203.57122802734</ele>
        <time>2009-04-15T13:11:13Z</time>
      </trkpt>
      <trkpt lat="44.93535" lon="5.02555">
        <ele>203.73014831543</ele>
        <time>2009-04-15T13:11:16Z</time>
      </trkpt>
      <trkpt lat="44.93566" lon="5.02451">
        <ele>202</ele>
        <time>2009-04-15T13:11:28Z</time>
      </trkpt>
      <trkpt lat="44.93574" lon="5.02443">
        <ele>201.96472167969</ele>
        <time>2009-04-15T13:11:29Z</time>
      </trkpt>
      <trkpt lat="44.93579" lon="5.0243">
        <ele>201.55952453613</ele>
        <time>2009-04-15T13:11:31Z</time>
      </trkpt>
      <trkpt lat="44.93589" lon="5.02384">
        <ele>200.96392822266</ele>
        <time>2009-04-15T13:11:36Z</time>
      </trkpt>
      <trkpt lat="44.93752" lon="5.02269">
        <ele>198</ele>
        <time>2009-04-15T13:12:02Z</time>
      </trkpt>
      <trkpt lat="44.93775" lon="5.02257">
        <ele>198</ele>
        <time>2009-04-15T13:12:06Z</time>
      </trkpt>
      <trkpt lat="44.93796" lon="5.02238">
        <ele>197.19201660156</ele>
        <time>2009-04-15T13:12:09Z</time>
      </trkpt>
      <trkpt lat="44.93817" lon="5.02207">
        <ele>196.5830078125</ele>
        <time>2009-04-15T13:12:14Z</time>
      </trkpt>
      <trkpt lat="44.93829" lon="5.02175">
        <ele>196.04716491699</ele>
        <time>2009-04-15T13:12:17Z</time>
      </trkpt>
      <trkpt lat="44.9383" lon="5.02104">
        <ele>195.11608886719</ele>
        <time>2009-04-15T13:12:25Z</time>
      </trkpt>
      <trkpt lat="44.93823" lon="5.02064">
        <ele>195.11447143555</ele>
        <time>2009-04-15T13:12:29Z</time>
      </trkpt>
      <trkpt lat="44.93805" lon="5.01998">
        <ele>195</ele>
        <time>2009-04-15T13:12:36Z</time>
      </trkpt>
      <trkpt lat="44.93808" lon="5.01799">
        <ele>192.97941589356</ele>
        <time>2009-04-15T13:12:57Z</time>
      </trkpt>
      <trkpt lat="44.93818" lon="5.01568">
        <ele>190.75439453125</ele>
        <time>2009-04-15T13:13:21Z</time>
      </trkpt>
      <trkpt lat="44.93865" lon="5.01394">
        <ele>188.86639404297</ele>
        <time>2009-04-15T13:13:40Z</time>
      </trkpt>
      <trkpt lat="44.93901" lon="5.01231">
        <ele>187</ele>
        <time>2009-04-15T13:13:57Z</time>
      </trkpt>
      <trkpt lat="44.94015" lon="5.00838">
        <ele>182.54695129394</ele>
        <time>2009-04-15T13:14:41Z</time>
      </trkpt>
      <trkpt lat="44.94048" lon="5.00737">
        <ele>181.14608764648</ele>
        <time>2009-04-15T13:14:53Z</time>
      </trkpt>
      <trkpt lat="44.94071" lon="5.00646">
        <ele>180.11566162109</ele>
        <time>2009-04-15T13:15:03Z</time>
      </trkpt>
      <trkpt lat="44.94129" lon="5.00448">
        <ele>178</ele>
        <time>2009-04-15T13:15:25Z</time>
      </trkpt>
      <trkpt lat="44.94139" lon="5.0042">
        <ele>178</ele>
        <time>2009-04-15T13:15:28Z</time>
      </trkpt>
      <trkpt lat="44.94153" lon="5.00396">
        <ele>177.25646972656</ele>
        <time>2009-04-15T13:15:31Z</time>
      </trkpt>
      <trkpt lat="44.94176" lon="5.00369">
        <ele>177</ele>
        <time>2009-04-15T13:15:35Z</time>
      </trkpt>
      <trkpt lat="44.94285" lon="5.0021">
        <ele>176</ele>
        <time>2009-04-15T13:15:58Z</time>
      </trkpt>
      <trkpt lat="44.94334" lon="5.00154">
        <ele>175</ele>
        <time>2009-04-15T13:16:07Z</time>
      </trkpt>
      <trkpt lat="44.94371" lon="5.00101">
        <ele>174.63578796387</ele>
        <time>2009-04-15T13:16:15Z</time>
      </trkpt>
      <trkpt lat="44.94475" lon="4.99691">
        <ele>171.40417480469</ele>
        <time>2009-04-15T13:17:00Z</time>
      </trkpt>
      <trkpt lat="44.94483" lon="4.99644">
        <ele>171.37925720215</ele>
        <time>2009-04-15T13:17:05Z</time>
      </trkpt>
      <trkpt lat="44.94487" lon="4.99562">
        <ele>170.54774475098</ele>
        <time>2009-04-15T13:17:13Z</time>
      </trkpt>
      <trkpt lat="44.94551" lon="4.99321">
        <ele>166.90914916992</ele>
        <time>2009-04-15T13:17:40Z</time>
      </trkpt>
      <trkpt lat="44.94557" lon="4.99304">
        <ele>166.75849914551</ele>
        <time>2009-04-15T13:17:42Z</time>
      </trkpt>
      <trkpt lat="44.94653" lon="4.99152">
        <ele>166.05801391602</ele>
        <time>2009-04-15T13:18:03Z</time>
      </trkpt>
      <trkpt lat="44.94761" lon="4.98974">
        <ele>164.46720886231</ele>
        <time>2009-04-15T13:18:27Z</time>
      </trkpt>
      <trkpt lat="44.94766" lon="4.9896">
        <ele>164.23100280762</ele>
        <time>2009-04-15T13:18:29Z</time>
      </trkpt>
      <trkpt lat="44.94781" lon="4.98676">
        <ele>163.07028198242</ele>
        <time>2009-04-15T13:18:58Z</time>
      </trkpt>
      <trkpt lat="44.9478" lon="4.98265">
        <ele>162.88488769531</ele>
        <time>2009-04-15T13:19:40Z</time>
      </trkpt>
      <trkpt lat="44.94764" lon="4.98193">
        <ele>162.88548278809</ele>
        <time>2009-04-15T13:19:48Z</time>
      </trkpt>
      <trkpt lat="44.94769" lon="4.98183">
        <ele>162.81762695312</ele>
        <time>2009-04-15T13:19:49Z</time>
      </trkpt>
      <trkpt lat="44.94782" lon="4.98178">
        <ele>162.66954040527</ele>
        <time>2009-04-15T13:19:51Z</time>
      </trkpt>
      <trkpt lat="44.94901" lon="4.98212">
        <ele>162.98512268066</ele>
        <time>2009-04-15T13:20:09Z</time>
      </trkpt>
      <trkpt lat="44.9498" lon="4.98264">
        <ele>164.08665466309</ele>
        <time>2009-04-15T13:20:22Z</time>
      </trkpt>
      <trkpt lat="44.95015" lon="4.98295">
        <ele>164.73414611816</ele>
        <time>2009-04-15T13:20:28Z</time>
      </trkpt>
      <trkpt lat="44.95026" lon="4.98296">
        <ele>164.89709472656</ele>
        <time>2009-04-15T13:20:29Z</time>
      </trkpt>
      <trkpt lat="44.95034" lon="4.98283">
        <ele>164.71949768066</ele>
        <time>2009-04-15T13:20:31Z</time>
      </trkpt>
      <trkpt lat="44.95181" lon="4.97803">
        <ele>161.76043701172</ele>
        <time>2009-04-15T13:21:25Z</time>
      </trkpt>
      <trkpt lat="44.95194" lon="4.97781">
        <ele>161.78186035156</ele>
        <time>2009-04-15T13:21:28Z</time>
      </trkpt>
      <trkpt lat="44.953" lon="4.97721">
        <ele>162.65205383301</ele>
        <time>2009-04-15T13:21:45Z</time>
      </trkpt>
      <trkpt lat="44.95325" lon="4.97694">
        <ele>162.32818603516</ele>
        <time>2009-04-15T13:21:49Z</time>
      </trkpt>
      <trkpt lat="44.95395" lon="4.97489">
        <ele>162.1639251709</ele>
        <time>2009-04-15T13:22:13Z</time>
      </trkpt>
      <trkpt lat="44.95437" lon="4.97402">
        <ele>161.17599487305</ele>
        <time>2009-04-15T13:22:23Z</time>
      </trkpt>
      <trkpt lat="44.95452" lon="4.97381">
        <ele>161.42776489258</ele>
        <time>2009-04-15T13:22:26Z</time>
      </trkpt>
      <trkpt lat="44.95465" lon="4.97366">
        <ele>161.60800170898</ele>
        <time>2009-04-15T13:22:29Z</time>
      </trkpt>
      <trkpt lat="44.95514" lon="4.97333">
        <ele>162.16302490234</ele>
        <time>2009-04-15T13:22:37Z</time>
      </trkpt>
      <trkpt lat="44.9606" lon="4.97121">
        <ele>163.27783203125</ele>
        <time>2009-04-15T13:23:59Z</time>
      </trkpt>
      <trkpt lat="44.96072" lon="4.97136">
        <ele>163.13592529297</ele>
        <time>2009-04-15T13:24:02Z</time>
      </trkpt>
      <trkpt lat="44.96087" lon="4.97134">
        <ele>162.9407043457</ele>
        <time>2009-04-15T13:24:04Z</time>
      </trkpt>
      <trkpt lat="44.96095" lon="4.97123">
        <ele>162.78857421875</ele>
        <time>2009-04-15T13:24:05Z</time>
      </trkpt>
      <trkpt lat="44.96094" lon="4.97103">
        <ele>162.77146911621</ele>
        <time>2009-04-15T13:24:07Z</time>
      </trkpt>
      <trkpt lat="44.96196" lon="4.97033">
        <ele>160.78761291504</ele>
        <time>2009-04-15T13:24:24Z</time>
      </trkpt>
      <trkpt lat="44.96225" lon="4.97008">
        <ele>160.36738586426</ele>
        <time>2009-04-15T13:24:29Z</time>
      </trkpt>
      <trkpt lat="44.96303" lon="4.96885">
        <ele>161.24238586426</ele>
        <time>2009-04-15T13:24:46Z</time>
      </trkpt>
      <trkpt lat="44.96315" lon="4.96872">
        <ele>161.41813659668</ele>
        <time>2009-04-15T13:24:48Z</time>
      </trkpt>
      <trkpt lat="44.96503" lon="4.96735">
        <ele>160.21017456055</ele>
        <time>2009-04-15T13:25:19Z</time>
      </trkpt>
      <trkpt lat="44.96606" lon="4.96667">
        <ele>161</ele>
        <time>2009-04-15T13:25:35Z</time>
      </trkpt>
      <trkpt lat="44.96679" lon="4.96577">
        <ele>160.8641204834</ele>
        <time>2009-04-15T13:25:50Z</time>
      </trkpt>
      <trkpt lat="44.96789" lon="4.96402">
        <ele>160.60224914551</ele>
        <time>2009-04-15T13:26:14Z</time>
      </trkpt>
      <trkpt lat="44.96824" lon="4.96344">
        <ele>161.56085205078</ele>
        <time>2009-04-15T13:26:22Z</time>
      </trkpt>
      <trkpt lat="44.96866" lon="4.96254">
        <ele>160.05876159668</ele>
        <time>2009-04-15T13:26:33Z</time>
      </trkpt>
      <trkpt lat="44.9696" lon="4.96072">
        <ele>159.40274047852</ele>
        <time>2009-04-15T13:26:56Z</time>
      </trkpt>
      <trkpt lat="44.9703" lon="4.95964">
        <ele>155.67997741699</ele>
        <time>2009-04-15T13:27:11Z</time>
      </trkpt>
      <trkpt lat="44.97145" lon="4.95804">
        <ele>159.83207702637</ele>
        <time>2009-04-15T13:27:34Z</time>
      </trkpt>
      <trkpt lat="44.97219" lon="4.95693">
        <ele>159.76875305176</ele>
        <time>2009-04-15T13:27:50Z</time>
      </trkpt>
      <trkpt lat="44.97228" lon="4.95668">
        <ele>159.28886413574</ele>
        <time>2009-04-15T13:27:53Z</time>
      </trkpt>
      <trkpt lat="44.97264" lon="4.95641">
        <ele>159.49475097656</ele>
        <time>2009-04-15T13:27:59Z</time>
      </trkpt>
      <trkpt lat="44.97262" lon="4.95602">
        <ele>159.61344909668</ele>
        <time>2009-04-15T13:28:03Z</time>
      </trkpt>
      <trkpt lat="44.97236" lon="4.95527">
        <ele>160.96891784668</ele>
        <time>2009-04-15T13:28:12Z</time>
      </trkpt>
      <trkpt lat="44.97216" lon="4.95479">
        <ele>161.99346923828</ele>
        <time>2009-04-15T13:28:17Z</time>
      </trkpt>
      <trkpt lat="44.97175" lon="4.95422">
        <ele>162.12600708008</ele>
        <time>2009-04-15T13:28:26Z</time>
      </trkpt>
      <trkpt lat="44.97178" lon="4.95411">
        <ele>162.35537719727</ele>
        <time>2009-04-15T13:28:27Z</time>
      </trkpt>
      <trkpt lat="44.97174" lon="4.9539">
        <ele>162.55480957031</ele>
        <time>2009-04-15T13:28:29Z</time>
      </trkpt>
      <trkpt lat="44.97151" lon="4.95358">
        <ele>162.38751220703</ele>
        <time>2009-04-15T13:28:34Z</time>
      </trkpt>
      <trkpt lat="44.97136" lon="4.95319">
        <ele>162.32572937012</ele>
        <time>2009-04-15T13:28:38Z</time>
      </trkpt>
      <trkpt lat="44.97135" lon="4.95282">
        <ele>162.47685241699</ele>
        <time>2009-04-15T13:28:42Z</time>
      </trkpt>
      <trkpt lat="44.97171" lon="4.95177">
        <ele>162.4308013916</ele>
        <time>2009-04-15T13:28:54Z</time>
      </trkpt>
      <trkpt lat="44.97183" lon="4.95103">
        <ele>164.37434387207</ele>
        <time>2009-04-15T13:29:02Z</time>
      </trkpt>
      <trkpt lat="44.97194" lon="4.95085">
        <ele>165.90249633789</ele>
        <time>2009-04-15T13:29:05Z</time>
      </trkpt>
      <trkpt lat="44.9721" lon="4.95071">
        <ele>168.19976806641</ele>
        <time>2009-04-15T13:29:07Z</time>
      </trkpt>
      <trkpt lat="44.9722" lon="4.9507">
        <ele>169.37089538574</ele>
        <time>2009-04-15T13:29:09Z</time>
      </trkpt>
      <trkpt lat="44.97234" lon="4.95078">
        <ele>170.55151367188</ele>
        <time>2009-04-15T13:29:11Z</time>
      </trkpt>
      <trkpt lat="44.97259" lon="4.95111">
        <ele>171.84310913086</ele>
        <time>2009-04-15T13:29:16Z</time>
      </trkpt>
      <trkpt lat="44.97327" lon="4.95176">
        <ele>175.08598327637</ele>
        <time>2009-04-15T13:29:28Z</time>
      </trkpt>
      <trkpt lat="44.97394" lon="4.95248">
        <ele>177.5065612793</ele>
        <time>2009-04-15T13:29:40Z</time>
      </trkpt>
      <trkpt lat="44.97442" lon="4.9528">
        <ele>180.15208435059</ele>
        <time>2009-04-15T13:29:48Z</time>
      </trkpt>
      <trkpt lat="44.97456" lon="4.95303">
        <ele>180.72256469727</ele>
        <time>2009-04-15T13:29:51Z</time>
      </trkpt>
      <trkpt lat="44.97481" lon="4.95302">
        <ele>182.24520874023</ele>
        <time>2009-04-15T13:29:55Z</time>
      </trkpt>
      <trkpt lat="44.97596" lon="4.95351">
        <ele>187.44721984863</ele>
        <time>2009-04-15T13:30:12Z</time>
      </trkpt>
      <trkpt lat="44.97813" lon="4.95487">
        <ele>187.60897827148</ele>
        <time>2009-04-15T13:30:47Z</time>
      </trkpt>
      <trkpt lat="44.97837" lon="4.95474">
        <ele>187.72746276856</ele>
        <time>2009-04-15T13:30:50Z</time>
      </trkpt>
      <trkpt lat="44.97934" lon="4.954">
        <ele>192.00750732422</ele>
        <time>2009-04-15T13:31:06Z</time>
      </trkpt>
      <trkpt lat="44.97985" lon="4.95373">
        <ele>192.29705810547</ele>
        <time>2009-04-15T13:31:14Z</time>
      </trkpt>
      <trkpt lat="44.98042" lon="4.95345">
        <ele>191.9991607666</ele>
        <time>2009-04-15T13:31:23Z</time>
      </trkpt>
      <trkpt lat="44.9807" lon="4.95337">
        <ele>191.96984863281</ele>
        <time>2009-04-15T13:31:27Z</time>
      </trkpt>
      <trkpt lat="44.98103" lon="4.9534">
        <ele>192.17411804199</ele>
        <time>2009-04-15T13:31:32Z</time>
      </trkpt>
      <trkpt lat="44.98115" lon="4.95323">
        <ele>192.25778198242</ele>
        <time>2009-04-15T13:31:35Z</time>
      </trkpt>
      <trkpt lat="44.98142" lon="4.95301">
        <ele>192.31442260742</ele>
        <time>2009-04-15T13:31:39Z</time>
      </trkpt>
      <trkpt lat="44.98281" lon="4.95246">
        <ele>192.01799011231</ele>
        <time>2009-04-15T13:32:00Z</time>
      </trkpt>
      <trkpt lat="44.98347" lon="4.95225">
        <ele>192.29998779297</ele>
        <time>2009-04-15T13:32:10Z</time>
      </trkpt>
      <trkpt lat="44.98368" lon="4.95209">
        <ele>192.49224853516</ele>
        <time>2009-04-15T13:32:13Z</time>
      </trkpt>
      <trkpt lat="44.98387" lon="4.95177">
        <ele>192.87620544434</ele>
        <time>2009-04-15T13:32:18Z</time>
      </trkpt>
      <trkpt lat="44.98412" lon="4.9512">
        <ele>192.50350952148</ele>
        <time>2009-04-15T13:32:25Z</time>
      </trkpt>
      <trkpt lat="44.98426" lon="4.95103">
        <ele>192.40795898438</ele>
        <time>2009-04-15T13:32:27Z</time>
      </trkpt>
      <trkpt lat="44.98531" lon="4.95011">
        <ele>193.08293151856</ele>
        <time>2009-04-15T13:32:45Z</time>
      </trkpt>
      <trkpt lat="44.98543" lon="4.94995">
        <ele>192.97120666504</ele>
        <time>2009-04-15T13:32:48Z</time>
      </trkpt>
      <trkpt lat="44.98662" lon="4.94708">
        <ele>189.37326049805</ele>
        <time>2009-04-15T13:33:22Z</time>
      </trkpt>
      <trkpt lat="44.98678" lon="4.947">
        <ele>188.94659423828</ele>
        <time>2009-04-15T13:33:24Z</time>
      </trkpt>
      <trkpt lat="44.98793" lon="4.94734">
        <ele>190.62858581543</ele>
        <time>2009-04-15T13:33:42Z</time>
      </trkpt>
      <trkpt lat="44.98804" lon="4.9473">
        <ele>190.66307067871</ele>
        <time>2009-04-15T13:33:43Z</time>
      </trkpt>
      <trkpt lat="44.98826" lon="4.94711">
        <ele>190.83166503906</ele>
        <time>2009-04-15T13:33:47Z</time>
      </trkpt>
      <trkpt lat="44.99036" lon="4.94505">
        <ele>194.89852905273</ele>
        <time>2009-04-15T13:34:24Z</time>
      </trkpt>
      <trkpt lat="44.99058" lon="4.94466">
        <ele>194.82652282715</ele>
        <time>2009-04-15T13:34:29Z</time>
      </trkpt>
      <trkpt lat="44.9907" lon="4.94432">
        <ele>194.30941772461</ele>
        <time>2009-04-15T13:34:33Z</time>
      </trkpt>
      <trkpt lat="44.99114" lon="4.94273">
        <ele>194.82508850098</ele>
        <time>2009-04-15T13:34:51Z</time>
      </trkpt>
      <trkpt lat="44.99127" lon="4.94245">
        <ele>195.02867126465</ele>
        <time>2009-04-15T13:34:54Z</time>
      </trkpt>
      <trkpt lat="44.99148" lon="4.94225">
        <ele>195.06661987305</ele>
        <time>2009-04-15T13:34:58Z</time>
      </trkpt>
      <trkpt lat="44.99207" lon="4.94202">
        <ele>194.31210327148</ele>
        <time>2009-04-15T13:35:07Z</time>
      </trkpt>
      <trkpt lat="44.99227" lon="4.94181">
        <ele>194.14935302734</ele>
        <time>2009-04-15T13:35:10Z</time>
      </trkpt>
      <trkpt lat="44.99405" lon="4.93898">
        <ele>193.77612304688</ele>
        <time>2009-04-15T13:35:49Z</time>
      </trkpt>
      <trkpt lat="44.99796" lon="4.93683">
        <ele>193.55705261231</ele>
        <time>2009-04-15T13:36:50Z</time>
      </trkpt>
      <trkpt lat="44.99983" lon="4.93548">
        <ele>191.54254150391</ele>
        <time>2009-04-15T13:37:21Z</time>
      </trkpt>
      <trkpt lat="45.0002" lon="4.93514">
        <ele>191.83184814453</ele>
        <time>2009-04-15T13:37:27Z</time>
      </trkpt>
      <trkpt lat="45.0015" lon="4.9343">
        <ele>193.76686096191</ele>
        <time>2009-04-15T13:37:48Z</time>
      </trkpt>
      <trkpt lat="45.00173" lon="4.93421">
        <ele>193.9176940918</ele>
        <time>2009-04-15T13:37:52Z</time>
      </trkpt>
      <trkpt lat="45.00284" lon="4.93405">
        <ele>191.49047851562</ele>
        <time>2009-04-15T13:38:08Z</time>
      </trkpt>
      <trkpt lat="45.00312" lon="4.93389">
        <ele>190.51657104492</ele>
        <time>2009-04-15T13:38:12Z</time>
      </trkpt>
      <trkpt lat="45.00368" lon="4.93333">
        <ele>188.92109680176</ele>
        <time>2009-04-15T13:38:22Z</time>
      </trkpt>
      <trkpt lat="45.00392" lon="4.93326">
        <ele>187.78166198731</ele>
        <time>2009-04-15T13:38:26Z</time>
      </trkpt>
      <trkpt lat="45.00441" lon="4.93326">
        <ele>184.47503662109</ele>
        <time>2009-04-15T13:38:33Z</time>
      </trkpt>
      <trkpt lat="45.0053" lon="4.93313">
        <ele>177.29138183594</ele>
        <time>2009-04-15T13:38:46Z</time>
      </trkpt>
      <trkpt lat="45.00557" lon="4.93301">
        <ele>174.62759399414</ele>
        <time>2009-04-15T13:38:50Z</time>
      </trkpt>
      <trkpt lat="45.00617" lon="4.9326">
        <ele>168.15324401856</ele>
        <time>2009-04-15T13:39:00Z</time>
      </trkpt>
      <trkpt lat="45.00641" lon="4.93233">
        <ele>163.88494873047</ele>
        <time>2009-04-15T13:39:04Z</time>
      </trkpt>
      <trkpt lat="45.0065" lon="4.93202">
        <ele>160.86256408691</ele>
        <time>2009-04-15T13:39:08Z</time>
      </trkpt>
      <trkpt lat="45.00668" lon="4.93004">
        <ele>151.03167724609</ele>
        <time>2009-04-15T13:39:28Z</time>
      </trkpt>
      <trkpt lat="45.00678" lon="4.92946">
        <ele>149.00883483887</ele>
        <time>2009-04-15T13:39:35Z</time>
      </trkpt>
      <trkpt lat="45.00706" lon="4.92837">
        <ele>146.59161376953</ele>
        <time>2009-04-15T13:39:46Z</time>
      </trkpt>
      <trkpt lat="45.00734" lon="4.92766">
        <ele>148.30537414551</ele>
        <time>2009-04-15T13:39:55Z</time>
      </trkpt>
      <trkpt lat="45.00746" lon="4.92768">
        <ele>148.32572937012</ele>
        <time>2009-04-15T13:39:57Z</time>
      </trkpt>
      <trkpt lat="45.00756" lon="4.92758">
        <ele>148.51475524902</ele>
        <time>2009-04-15T13:39:58Z</time>
      </trkpt>
      <trkpt lat="45.00777" lon="4.92783">
        <ele>147.22320556641</ele>
        <time>2009-04-15T13:40:02Z</time>
      </trkpt>
      <trkpt lat="45.00906" lon="4.92896">
        <ele>146.96820068359</ele>
        <time>2009-04-15T13:40:24Z</time>
      </trkpt>
      <trkpt lat="45.01099" lon="4.93103">
        <ele>147.75590515137</ele>
        <time>2009-04-15T13:41:00Z</time>
      </trkpt>
      <trkpt lat="45.01174" lon="4.93168">
        <ele>149.73303222656</ele>
        <time>2009-04-15T13:41:12Z</time>
      </trkpt>
      <trkpt lat="45.01311" lon="4.93255">
        <ele>143.13330078125</ele>
        <time>2009-04-15T13:41:34Z</time>
      </trkpt>
      <trkpt lat="45.01332" lon="4.93275">
        <ele>141.119140625</ele>
        <time>2009-04-15T13:41:38Z</time>
      </trkpt>
      <trkpt lat="45.01349" lon="4.933">
        <ele>139.3212890625</ele>
        <time>2009-04-15T13:41:42Z</time>
      </trkpt>
      <trkpt lat="45.01391" lon="4.934">
        <ele>135.64559936523</ele>
        <time>2009-04-15T13:41:54Z</time>
      </trkpt>
      <trkpt lat="45.01421" lon="4.93453">
        <ele>137.3729095459</ele>
        <time>2009-04-15T13:42:01Z</time>
      </trkpt>
      <trkpt lat="45.01438" lon="4.93496">
        <ele>139.03355407715</ele>
        <time>2009-04-15T13:42:06Z</time>
      </trkpt>
      <trkpt lat="45.01407" lon="4.93482">
        <ele>142.04078674316</ele>
        <time>2009-04-15T13:42:10Z</time>
      </trkpt>
      <trkpt lat="45.01438" lon="4.93496">
        <ele>139.03355407715</ele>
        <time>2009-04-15T13:42:15Z</time>
      </trkpt>
      <trkpt lat="45.01454" lon="4.93539">
        <ele>142.2702331543</ele>
        <time>2009-04-15T13:42:20Z</time>
      </trkpt>
      <trkpt lat="45.01478" lon="4.93722">
        <ele>144.24795532227</ele>
        <time>2009-04-15T13:42:39Z</time>
      </trkpt>
      <trkpt lat="45.01473" lon="4.93734">
        <ele>146.69528198242</ele>
        <time>2009-04-15T13:42:41Z</time>
      </trkpt>
      <trkpt lat="45.01478" lon="4.93741">
        <ele>144.33964538574</ele>
        <time>2009-04-15T13:42:42Z</time>
      </trkpt>
      <trkpt lat="45.01482" lon="4.9374">
        <ele>142.3346862793</ele>
        <time>2009-04-15T13:42:42Z</time>
      </trkpt>
      <trkpt lat="45.01504" lon="4.93822">
        <ele>132.91723632812</ele>
        <time>2009-04-15T13:42:51Z</time>
      </trkpt>
      <trkpt lat="45.01546" lon="4.93932">
        <ele>134.18240356445</ele>
        <time>2009-04-15T13:43:04Z</time>
      </trkpt>
      <trkpt lat="45.01544" lon="4.93942">
        <ele>135.0693359375</ele>
        <time>2009-04-15T13:43:05Z</time>
      </trkpt>
      <trkpt lat="45.01553" lon="4.93948">
        <ele>135.35943603516</ele>
        <time>2009-04-15T13:43:07Z</time>
      </trkpt>
      <trkpt lat="45.01557" lon="4.93937">
        <ele>134.33747863769</ele>
        <time>2009-04-15T13:43:08Z</time>
      </trkpt>
      <trkpt lat="45.01667" lon="4.93829">
        <ele>123.99617004394</ele>
        <time>2009-04-15T13:43:27Z</time>
      </trkpt>
      <trkpt lat="45.01781" lon="4.93737">
        <ele>126.98397827148</ele>
        <time>2009-04-15T13:43:47Z</time>
      </trkpt>
      <trkpt lat="45.01929" lon="4.93593">
        <ele>133.11738586426</ele>
        <time>2009-04-15T13:44:13Z</time>
      </trkpt>
      <trkpt lat="45.01942" lon="4.93589">
        <ele>133.7303314209</ele>
        <time>2009-04-15T13:44:15Z</time>
      </trkpt>
      <trkpt lat="45.01982" lon="4.93548">
        <ele>135.44715881348</ele>
        <time>2009-04-15T13:44:22Z</time>
      </trkpt>
      <trkpt lat="45.02028" lon="4.93515">
        <ele>136.33471679688</ele>
        <time>2009-04-15T13:44:29Z</time>
      </trkpt>
      <trkpt lat="45.02047" lon="4.93491">
        <ele>136.51637268066</ele>
        <time>2009-04-15T13:44:33Z</time>
      </trkpt>
      <trkpt lat="45.02089" lon="4.93459">
        <ele>137.10018920898</ele>
        <time>2009-04-15T13:44:40Z</time>
      </trkpt>
      <trkpt lat="45.02145" lon="4.93406">
        <ele>138.35221862793</ele>
        <time>2009-04-15T13:44:50Z</time>
      </trkpt>
      <trkpt lat="45.02201" lon="4.93367">
        <ele>137.99108886719</ele>
        <time>2009-04-15T13:44:59Z</time>
      </trkpt>
      <trkpt lat="45.02229" lon="4.93357">
        <ele>137.53675842285</ele>
        <time>2009-04-15T13:45:03Z</time>
      </trkpt>
      <trkpt lat="45.02258" lon="4.93355">
        <ele>137.23516845703</ele>
        <time>2009-04-15T13:45:07Z</time>
      </trkpt>
      <trkpt lat="45.02429" lon="4.9337">
        <ele>136.7317199707</ele>
        <time>2009-04-15T13:45:32Z</time>
      </trkpt>
      <trkpt lat="45.02522" lon="4.93366">
        <ele>137.92326354981</ele>
        <time>2009-04-15T13:45:46Z</time>
      </trkpt>
      <trkpt lat="45.02555" lon="4.9336">
        <ele>137.23596191406</ele>
        <time>2009-04-15T13:45:51Z</time>
      </trkpt>
      <trkpt lat="45.02593" lon="4.93342">
        <ele>136.58407592773</ele>
        <time>2009-04-15T13:45:56Z</time>
      </trkpt>
      <trkpt lat="45.0279" lon="4.93198">
        <ele>137.11016845703</ele>
        <time>2009-04-15T13:46:29Z</time>
      </trkpt>
      <trkpt lat="45.02935" lon="4.93102">
        <ele>136.80276489258</ele>
        <time>2009-04-15T13:46:52Z</time>
      </trkpt>
      <trkpt lat="45.02979" lon="4.93086">
        <ele>135.75694274902</ele>
        <time>2009-04-15T13:46:59Z</time>
      </trkpt>
      <trkpt lat="45.03062" lon="4.93076">
        <ele>135.98840332031</ele>
        <time>2009-04-15T13:47:11Z</time>
      </trkpt>
      <trkpt lat="45.03103" lon="4.93079">
        <ele>136.56091308594</ele>
        <time>2009-04-15T13:47:17Z</time>
      </trkpt>
      <trkpt lat="45.03136" lon="4.93091">
        <ele>136.46076965332</ele>
        <time>2009-04-15T13:47:22Z</time>
      </trkpt>
      <trkpt lat="45.03162" lon="4.93088">
        <ele>137.43312072754</ele>
        <time>2009-04-15T13:47:26Z</time>
      </trkpt>
      <trkpt lat="45.03168" lon="4.93093">
        <ele>137.0959777832</ele>
        <time>2009-04-15T13:47:27Z</time>
      </trkpt>
      <trkpt lat="45.0318" lon="4.93089">
        <ele>137.65774536133</ele>
        <time>2009-04-15T13:47:28Z</time>
      </trkpt>
      <trkpt lat="45.03201" lon="4.93111">
        <ele>136.30140686035</ele>
        <time>2009-04-15T13:47:32Z</time>
      </trkpt>
      <trkpt lat="45.03287" lon="4.9316">
        <ele>136.58485412598</ele>
        <time>2009-04-15T13:47:46Z</time>
      </trkpt>
      <trkpt lat="45.03358" lon="4.93219">
        <ele>134.57868957519</ele>
        <time>2009-04-15T13:47:58Z</time>
      </trkpt>
      <trkpt lat="45.03436" lon="4.93307">
        <ele>135.74491882324</ele>
        <time>2009-04-15T13:48:12Z</time>
      </trkpt>
      <trkpt lat="45.03537" lon="4.93449">
        <ele>136.95088195801</ele>
        <time>2009-04-15T13:48:33Z</time>
      </trkpt>
      <trkpt lat="45.0375" lon="4.93658">
        <ele>137.40798950195</ele>
        <time>2009-04-15T13:49:11Z</time>
      </trkpt>
      <trkpt lat="45.0389" lon="4.93774">
        <ele>137.7565612793</ele>
        <time>2009-04-15T13:49:34Z</time>
      </trkpt>
      <trkpt lat="45.03983" lon="4.93896">
        <ele>139.55737304688</ele>
        <time>2009-04-15T13:49:53Z</time>
      </trkpt>
      <trkpt lat="45.04189" lon="4.94095">
        <ele>145.36340332031</ele>
        <time>2009-04-15T13:50:29Z</time>
      </trkpt>
      <trkpt lat="45.04374" lon="4.9429">
        <ele>144.27351379394</ele>
        <time>2009-04-15T13:51:03Z</time>
      </trkpt>
      <trkpt lat="45.0443" lon="4.94341">
        <ele>144</ele>
        <time>2009-04-15T13:51:12Z</time>
      </trkpt>
      <trkpt lat="45.04466" lon="4.94367">
        <ele>144</ele>
        <time>2009-04-15T13:51:18Z</time>
      </trkpt>
      <trkpt lat="45.04696" lon="4.94469">
        <ele>145.35070800781</ele>
        <time>2009-04-15T13:51:53Z</time>
      </trkpt>
      <trkpt lat="45.0485" lon="4.94568">
        <ele>146.03677368164</ele>
        <time>2009-04-15T13:52:18Z</time>
      </trkpt>
      <trkpt lat="45.05055" lon="4.94717">
        <ele>148.42442321777</ele>
        <time>2009-04-15T13:52:51Z</time>
      </trkpt>
      <trkpt lat="45.05162" lon="4.94733">
        <ele>149.76058959961</ele>
        <time>2009-04-15T13:53:07Z</time>
      </trkpt>
      <trkpt lat="45.05189" lon="4.94749">
        <ele>149.58299255371</ele>
        <time>2009-04-15T13:53:11Z</time>
      </trkpt>
      <trkpt lat="45.05211" lon="4.94771">
        <ele>148.56414794922</ele>
        <time>2009-04-15T13:53:15Z</time>
      </trkpt>
      <trkpt lat="45.05238" lon="4.94772">
        <ele>149.314453125</ele>
        <time>2009-04-15T13:53:19Z</time>
      </trkpt>
      <trkpt lat="45.05271" lon="4.94908">
        <ele>142.53518676758</ele>
        <time>2009-04-15T13:53:34Z</time>
      </trkpt>
      <trkpt lat="45.05275" lon="4.94914">
        <ele>142.35781860352</ele>
        <time>2009-04-15T13:53:35Z</time>
      </trkpt>
      <trkpt lat="45.05325" lon="4.95167">
        <ele>145.61080932617</ele>
        <time>2009-04-15T13:54:02Z</time>
      </trkpt>
      <trkpt lat="45.05331" lon="4.95248">
        <ele>148.89790344238</ele>
        <time>2009-04-15T13:54:10Z</time>
      </trkpt>
      <trkpt lat="45.05329" lon="4.95336">
        <ele>147.98005676269</ele>
        <time>2009-04-15T13:54:19Z</time>
      </trkpt>
      <trkpt lat="45.05414" lon="4.96194">
        <ele>150.8974609375</ele>
        <time>2009-04-15T13:55:48Z</time>
      </trkpt>
      <trkpt lat="45.05417" lon="4.96262">
        <ele>150.85905456543</ele>
        <time>2009-04-15T13:55:55Z</time>
      </trkpt>
      <trkpt lat="45.05413" lon="4.96271">
        <ele>150.65086364746</ele>
        <time>2009-04-15T13:55:56Z</time>
      </trkpt>
      <trkpt lat="45.05413" lon="4.96343">
        <ele>149.88911437988</ele>
        <time>2009-04-15T13:56:04Z</time>
      </trkpt>
      <trkpt lat="45.05408" lon="4.9635">
        <ele>149.82054138184</ele>
        <time>2009-04-15T13:56:05Z</time>
      </trkpt>
      <trkpt lat="45.05406" lon="4.96365">
        <ele>149.66754150391</ele>
        <time>2009-04-15T13:56:06Z</time>
      </trkpt>
      <trkpt lat="45.05413" lon="4.96378">
        <ele>149.4873046875</ele>
        <time>2009-04-15T13:56:08Z</time>
      </trkpt>
      <trkpt lat="45.05425" lon="4.96379">
        <ele>149.64921569824</ele>
        <time>2009-04-15T13:56:10Z</time>
      </trkpt>
      <trkpt lat="45.05431" lon="4.96373">
        <ele>149.86779785156</ele>
        <time>2009-04-15T13:56:11Z</time>
      </trkpt>
      <trkpt lat="45.05434" lon="4.96355">
        <ele>150.15676879883</ele>
        <time>2009-04-15T13:56:13Z</time>
      </trkpt>
      <trkpt lat="45.05494" lon="4.96344">
        <ele>151.72631835938</ele>
        <time>2009-04-15T13:56:22Z</time>
      </trkpt>
      <trkpt lat="45.05559" lon="4.9634">
        <ele>151.32362365723</ele>
        <time>2009-04-15T13:56:31Z</time>
      </trkpt>
      <trkpt lat="45.0566" lon="4.96348">
        <ele>152.09439086914</ele>
        <time>2009-04-15T13:56:46Z</time>
      </trkpt>
      <trkpt lat="45.05733" lon="4.96362">
        <ele>153.93882751465</ele>
        <time>2009-04-15T13:56:57Z</time>
      </trkpt>
      <trkpt lat="45.06011" lon="4.96435">
        <ele>159.87030029297</ele>
        <time>2009-04-15T13:57:38Z</time>
      </trkpt>
      <trkpt lat="45.06149" lon="4.96415">
        <ele>160.0115814209</ele>
        <time>2009-04-15T13:57:58Z</time>
      </trkpt>
      <trkpt lat="45.06285" lon="4.96357">
        <ele>159.18307495117</ele>
        <time>2009-04-15T13:58:19Z</time>
      </trkpt>
      <trkpt lat="45.06436" lon="4.96344">
        <ele>155.81399536133</ele>
        <time>2009-04-15T13:58:41Z</time>
      </trkpt>
      <trkpt lat="45.06534" lon="4.96341">
        <ele>155.83317565918</ele>
        <time>2009-04-15T13:58:55Z</time>
      </trkpt>
      <trkpt lat="45.06629" lon="4.96278">
        <ele>154.56256103516</ele>
        <time>2009-04-15T13:59:10Z</time>
      </trkpt>
      <trkpt lat="45.0677" lon="4.96221">
        <ele>156.65974426269</ele>
        <time>2009-04-15T13:59:32Z</time>
      </trkpt>
      <trkpt lat="45.06799" lon="4.96192">
        <ele>157.61204528809</ele>
        <time>2009-04-15T13:59:37Z</time>
      </trkpt>
      <trkpt lat="45.06894" lon="4.96046">
        <ele>156.11824035644</ele>
        <time>2009-04-15T13:59:57Z</time>
      </trkpt>
      <trkpt lat="45.06907" lon="4.96032">
        <ele>155.61210632324</ele>
        <time>2009-04-15T13:59:59Z</time>
      </trkpt>
      <trkpt lat="45.07038" lon="4.95951">
        <ele>157.12716674805</ele>
        <time>2009-04-15T14:00:20Z</time>
      </trkpt>
      <trkpt lat="45.07136" lon="4.95863">
        <ele>155.57176208496</ele>
        <time>2009-04-15T14:00:37Z</time>
      </trkpt>
      <trkpt lat="45.07172" lon="4.95847">
        <ele>155.70498657227</ele>
        <time>2009-04-15T14:00:43Z</time>
      </trkpt>
      <trkpt lat="45.07202" lon="4.95838">
        <ele>156.49406433106</ele>
        <time>2009-04-15T14:00:47Z</time>
      </trkpt>
      <trkpt lat="45.07245" lon="4.95836">
        <ele>157.97264099121</ele>
        <time>2009-04-15T14:00:53Z</time>
      </trkpt>
      <trkpt lat="45.07345" lon="4.95863">
        <ele>161.62112426758</ele>
        <time>2009-04-15T14:01:08Z</time>
      </trkpt>
      <trkpt lat="45.07424" lon="4.95866">
        <ele>162.42749023438</ele>
        <time>2009-04-15T14:01:20Z</time>
      </trkpt>
      <trkpt lat="45.07593" lon="4.95836">
        <ele>161.18992614746</ele>
        <time>2009-04-15T14:01:44Z</time>
      </trkpt>
      <trkpt lat="45.07717" lon="4.95831">
        <ele>163.09391784668</ele>
        <time>2009-04-15T14:02:03Z</time>
      </trkpt>
      <trkpt lat="45.07764" lon="4.95819">
        <ele>163.00015258789</ele>
        <time>2009-04-15T14:02:10Z</time>
      </trkpt>
      <trkpt lat="45.0783" lon="4.95827">
        <ele>162.73278808594</ele>
        <time>2009-04-15T14:02:19Z</time>
      </trkpt>
      <trkpt lat="45.0799" lon="4.95858">
        <ele>166.2373046875</ele>
        <time>2009-04-15T14:02:43Z</time>
      </trkpt>
      <trkpt lat="45.08001" lon="4.95855">
        <ele>166.32641601562</ele>
        <time>2009-04-15T14:02:44Z</time>
      </trkpt>
      <trkpt lat="45.08003" lon="4.95837">
        <ele>165.23489379883</ele>
        <time>2009-04-15T14:02:46Z</time>
      </trkpt>
      <trkpt lat="45.07997" lon="4.95664">
        <ele>160.93440246582</ele>
        <time>2009-04-15T14:03:04Z</time>
      </trkpt>
      <trkpt lat="45.08001" lon="4.95639">
        <ele>160.68301391602</ele>
        <time>2009-04-15T14:03:07Z</time>
      </trkpt>
      <trkpt lat="45.0803" lon="4.95569">
        <ele>160.78033447266</ele>
        <time>2009-04-15T14:03:15Z</time>
      </trkpt>
      <trkpt lat="45.08049" lon="4.95504">
        <ele>161.7361907959</ele>
        <time>2009-04-15T14:03:22Z</time>
      </trkpt>
      <trkpt lat="45.08085" lon="4.95467">
        <ele>162.19674682617</ele>
        <time>2009-04-15T14:03:29Z</time>
      </trkpt>
      <trkpt lat="45.08153" lon="4.9542">
        <ele>161.04618835449</ele>
        <time>2009-04-15T14:03:40Z</time>
      </trkpt>
      <trkpt lat="45.0819" lon="4.95387">
        <ele>161.43727111816</ele>
        <time>2009-04-15T14:03:46Z</time>
      </trkpt>
      <trkpt lat="45.08231" lon="4.95326">
        <ele>161.20822143555</ele>
        <time>2009-04-15T14:03:55Z</time>
      </trkpt>
      <trkpt lat="45.08271" lon="4.95277">
        <ele>161</ele>
        <time>2009-04-15T14:04:02Z</time>
      </trkpt>
      <trkpt lat="45.08368" lon="4.95204">
        <ele>162.28956604004</ele>
        <time>2009-04-15T14:04:18Z</time>
      </trkpt>
      <trkpt lat="45.0854" lon="4.95099">
        <ele>163</ele>
        <time>2009-04-15T14:04:46Z</time>
      </trkpt>
      <trkpt lat="45.08682" lon="4.95042">
        <ele>163.09051513672</ele>
        <time>2009-04-15T14:05:07Z</time>
      </trkpt>
      <trkpt lat="45.08919" lon="4.94956">
        <ele>166.47219848633</ele>
        <time>2009-04-15T14:05:43Z</time>
      </trkpt>
      <trkpt lat="45.08971" lon="4.94941">
        <ele>166.29196166992</ele>
        <time>2009-04-15T14:05:50Z</time>
      </trkpt>
      <trkpt lat="45.09016" lon="4.9494">
        <ele>166.41850280762</ele>
        <time>2009-04-15T14:05:57Z</time>
      </trkpt>
      <trkpt lat="45.09105" lon="4.95011">
        <ele>167</ele>
        <time>2009-04-15T14:06:12Z</time>
      </trkpt>
      <trkpt lat="45.09224" lon="4.95094">
        <ele>168.28643798828</ele>
        <time>2009-04-15T14:06:31Z</time>
      </trkpt>
      <trkpt lat="45.09313" lon="4.95168">
        <ele>168.03244018555</ele>
        <time>2009-04-15T14:06:46Z</time>
      </trkpt>
      <trkpt lat="45.09381" lon="4.95202">
        <ele>169.17848205566</ele>
        <time>2009-04-15T14:06:57Z</time>
      </trkpt>
      <trkpt lat="45.09457" lon="4.95229">
        <ele>170.23226928711</ele>
        <time>2009-04-15T14:07:08Z</time>
      </trkpt>
      <trkpt lat="45.09723" lon="4.95274">
        <ele>172.29284667969</ele>
        <time>2009-04-15T14:07:47Z</time>
      </trkpt>
      <trkpt lat="45.09767" lon="4.95272">
        <ele>172.7901763916</ele>
        <time>2009-04-15T14:07:54Z</time>
      </trkpt>
      <trkpt lat="45.09778" lon="4.95267">
        <ele>172.86405944824</ele>
        <time>2009-04-15T14:07:55Z</time>
      </trkpt>
      <trkpt lat="45.09897" lon="4.95185">
        <ele>173.16763305664</ele>
        <time>2009-04-15T14:08:14Z</time>
      </trkpt>
      <trkpt lat="45.10111" lon="4.95086">
        <ele>174.67140197754</ele>
        <time>2009-04-15T14:08:47Z</time>
      </trkpt>
      <trkpt lat="45.10339" lon="4.95019">
        <ele>181.85139465332</ele>
        <time>2009-04-15T14:09:21Z</time>
      </trkpt>
      <trkpt lat="45.10413" lon="4.95028">
        <ele>185.4635925293</ele>
        <time>2009-04-15T14:09:32Z</time>
      </trkpt>
      <trkpt lat="45.10426" lon="4.95018">
        <ele>186.55723571777</ele>
        <time>2009-04-15T14:09:34Z</time>
      </trkpt>
      <trkpt lat="45.10447" lon="4.94987">
        <ele>189.28858947754</ele>
        <time>2009-04-15T14:09:38Z</time>
      </trkpt>
      <trkpt lat="45.1046" lon="4.94986">
        <ele>190.00172424316</ele>
        <time>2009-04-15T14:09:40Z</time>
      </trkpt>
      <trkpt lat="45.10467" lon="4.94976">
        <ele>191.03782653809</ele>
        <time>2009-04-15T14:09:42Z</time>
      </trkpt>
      <trkpt lat="45.105" lon="4.94991">
        <ele>191.64456176758</ele>
        <time>2009-04-15T14:09:47Z</time>
      </trkpt>
      <trkpt lat="45.10512" lon="4.94991">
        <ele>192.26202392578</ele>
        <time>2009-04-15T14:09:49Z</time>
      </trkpt>
      <trkpt lat="45.1075" lon="4.95108">
        <ele>192.81015014648</ele>
        <time>2009-04-15T14:10:25Z</time>
      </trkpt>
      <trkpt lat="45.10911" lon="4.95279">
        <ele>194.63291931152</ele>
        <time>2009-04-15T14:10:55Z</time>
      </trkpt>
      <trkpt lat="45.10949" lon="4.95398">
        <ele>191.72419738769</ele>
        <time>2009-04-15T14:11:08Z</time>
      </trkpt>
      <trkpt lat="45.10964" lon="4.955">
        <ele>197.48745727539</ele>
        <time>2009-04-15T14:11:19Z</time>
      </trkpt>
      <trkpt lat="45.10971" lon="4.95528">
        <ele>198.01824951172</ele>
        <time>2009-04-15T14:11:22Z</time>
      </trkpt>
      <trkpt lat="45.10984" lon="4.95557">
        <ele>199.33639526367</ele>
        <time>2009-04-15T14:11:25Z</time>
      </trkpt>
      <trkpt lat="45.11011" lon="4.95589">
        <ele>202.41423034668</ele>
        <time>2009-04-15T14:11:30Z</time>
      </trkpt>
      <trkpt lat="45.11095" lon="4.95655">
        <ele>204.96310424805</ele>
        <time>2009-04-15T14:11:44Z</time>
      </trkpt>
      <trkpt lat="45.11111" lon="4.95678">
        <ele>202.45606994629</ele>
        <time>2009-04-15T14:11:48Z</time>
      </trkpt>
      <trkpt lat="45.11149" lon="4.95754">
        <ele>195.98263549805</ele>
        <time>2009-04-15T14:11:57Z</time>
      </trkpt>
      <trkpt lat="45.11262" lon="4.95926">
        <ele>200.72196960449</ele>
        <time>2009-04-15T14:12:21Z</time>
      </trkpt>
      <trkpt lat="45.11419" lon="4.96214">
        <ele>203.41395568848</ele>
        <time>2009-04-15T14:12:59Z</time>
      </trkpt>
      <trkpt lat="45.11445" lon="4.96276">
        <ele>201.54397583008</ele>
        <time>2009-04-15T14:13:06Z</time>
      </trkpt>
      <trkpt lat="45.11475" lon="4.96328">
        <ele>198.77952575684</ele>
        <time>2009-04-15T14:13:13Z</time>
      </trkpt>
      <trkpt lat="45.1156" lon="4.96456">
        <ele>195.61415100098</ele>
        <time>2009-04-15T14:13:31Z</time>
      </trkpt>
      <trkpt lat="45.11583" lon="4.96501">
        <ele>194.98155212402</ele>
        <time>2009-04-15T14:13:37Z</time>
      </trkpt>
      <trkpt lat="45.11655" lon="4.9669">
        <ele>194.48162841797</ele>
        <time>2009-04-15T14:13:59Z</time>
      </trkpt>
      <trkpt lat="45.11728" lon="4.96823">
        <ele>195.35646057129</ele>
        <time>2009-04-15T14:14:16Z</time>
      </trkpt>
      <trkpt lat="45.11723" lon="4.96835">
        <ele>195.34509277344</ele>
        <time>2009-04-15T14:14:18Z</time>
      </trkpt>
      <trkpt lat="45.11726" lon="4.96853">
        <ele>195.55635070801</ele>
        <time>2009-04-15T14:14:20Z</time>
      </trkpt>
      <trkpt lat="45.11738" lon="4.96862">
        <ele>195.68299865723</ele>
        <time>2009-04-15T14:14:22Z</time>
      </trkpt>
      <trkpt lat="45.1175" lon="4.96856">
        <ele>195.54531860352</ele>
        <time>2009-04-15T14:14:23Z</time>
      </trkpt>
      <trkpt lat="45.11768" lon="4.96888">
        <ele>196.53469848633</ele>
        <time>2009-04-15T14:14:28Z</time>
      </trkpt>
      <trkpt lat="45.11888" lon="4.97052">
        <ele>197.94848632812</ele>
        <time>2009-04-15T14:14:52Z</time>
      </trkpt>
      <trkpt lat="45.11882" lon="4.97064">
        <ele>197.59297180176</ele>
        <time>2009-04-15T14:14:53Z</time>
      </trkpt>
      <trkpt lat="45.1189" lon="4.97077">
        <ele>197.48553466797</ele>
        <time>2009-04-15T14:14:55Z</time>
      </trkpt>
      <trkpt lat="45.11882" lon="4.97105">
        <ele>197.06047058106</ele>
        <time>2009-04-15T14:14:58Z</time>
      </trkpt>
      <trkpt lat="45.11882" lon="4.97155">
        <ele>196.81089782715</ele>
        <time>2009-04-15T14:15:03Z</time>
      </trkpt>
      <trkpt lat="45.11908" lon="4.97334">
        <ele>195.8963470459</ele>
        <time>2009-04-15T14:15:22Z</time>
      </trkpt>
    </trkseg>
  </trk>
</gpx>